ELY018 KMIA-LLBG
Flight info
| Callsign | ELY018 |
|---|---|
| Flight time | 12h 20m |
| Altitude | 35000 |
| Route | FOLZZ3 ALYRA GRUBR/N0502F310 Y299 SEELO WAALT Q131 KALDA ZJAAY Q167 RIFLE YAHOO WHALE SUPRY/M084F330 ELSOX TAKAS/N0495F330 ALUTA KORER/N0486F350 LEMKA BEBIX ROMAM UL55 RILIP LUKIM TINKU NOSTO N7 NEMES KUPIS N134 VAXOS N134 KOMEZ N134 BIRES N134 KEREN |
| Aircraft | B773/H-SDRWY/S |
Departure
| Time | 2026-05-04 15:46 |
|---|---|
| Airport | Miami International Airport (KMIA) |
Arrival
| Time | 2026-05-05 04:07 |
|---|---|
| Airport | Ben Gurion International Airport (LLBG) |
| Time | Latitude | Longitude | Altitude | Speed | Heading |
|---|---|---|---|---|---|
| 2026-05-04 15:14 | 25.79183 | -80.27427 | 21 ft | 0 kts | 86° |
| 2026-05-04 15:35 | 25.79182 | -80.27439 | 21 ft | 3 kts | 86° |
| 2026-05-04 15:35 | 25.79181 | -80.27460 | 23 ft | 3 kts | 86° |
| 2026-05-04 15:36 | 25.79179 | -80.27501 | 27 ft | 3 kts | 86° |
| 2026-05-04 15:36 | 25.79178 | -80.27521 | 27 ft | 2 kts | 86° |
| 2026-05-04 15:36 | 25.79178 | -80.27524 | 27 ft | 0 kts | 86° |
| 2026-05-04 15:42 | 25.79139 | -80.27489 | 21 ft | 15 kts | 173° |
| 2026-05-04 15:42 | 25.79047 | -80.27483 | 23 ft | 11 kts | 176° |
| 2026-05-04 15:43 | 25.78972 | -80.27478 | 26 ft | 11 kts | 180° |
| 2026-05-04 15:43 | 25.78914 | -80.27521 | 28 ft | 11 kts | 245° |
| 2026-05-04 15:43 | 25.78894 | -80.27600 | 25 ft | 11 kts | 258° |
| 2026-05-04 15:43 | 25.78884 | -80.27682 | 24 ft | 11 kts | 265° |
| 2026-05-04 15:44 | 25.78880 | -80.27769 | 23 ft | 13 kts | 270° |
| 2026-05-04 15:44 | 25.78907 | -80.27859 | 29 ft | 10 kts | 297° |
| 2026-05-04 15:44 | 25.78930 | -80.27911 | 29 ft | 6 kts | 294° |
| 2026-05-04 15:44 | 25.78938 | -80.27959 | 27 ft | 6 kts | 268° |
| 2026-05-04 15:45 | 25.78918 | -80.28015 | 27 ft | 11 kts | 246° |
| 2026-05-04 15:45 | 25.78896 | -80.28112 | 30 ft | 14 kts | 260° |
| 2026-05-04 15:45 | 25.78903 | -80.28206 | 27 ft | 12 kts | 291° |
| 2026-05-04 15:45 | 25.78917 | -80.28240 | 26 ft | 0 kts | 296° |
| 2026-05-04 15:46 | 25.78994 | -80.28400 | 28 ft | 65 kts | 299° |
| 2026-05-04 15:46 | 25.79345 | -80.29085 | 20 ft | 145 kts | 299° |
| 2026-05-04 15:46 | 25.79960 | -80.30305 | 130 ft | 206 kts | 301° |
| 2026-05-04 15:46 | 25.80625 | -80.31698 | 1226 ft | 197 kts | 298° |
| 2026-05-04 15:47 | 25.81214 | -80.33042 | 2315 ft | 192 kts | 300° |
| 2026-05-04 15:47 | 25.81852 | -80.34292 | 2909 ft | 180 kts | 303° |
| 2026-05-04 15:47 | 25.82478 | -80.35470 | 3414 ft | 177 kts | 302° |
| 2026-05-04 15:47 | 25.83106 | -80.36661 | 3821 ft | 181 kts | 301° |
| 2026-05-04 15:48 | 25.83752 | -80.37897 | 4231 ft | 189 kts | 302° |
| 2026-05-04 15:48 | 25.84458 | -80.39250 | 4263 ft | 217 kts | 301° |
| 2026-05-04 15:48 | 25.86706 | -80.41645 | 4245 ft | 240 kts | 346° |
| 2026-05-04 15:49 | 25.88356 | -80.42055 | 4482 ft | 255 kts | 346° |
| 2026-05-04 15:49 | 25.90155 | -80.42534 | 4570 ft | 275 kts | 346° |
| 2026-05-04 15:49 | 25.92091 | -80.43017 | 4783 ft | 294 kts | 352° |
| 2026-05-04 15:49 | 25.94173 | -80.42782 | 4986 ft | 314 kts | 20° |
| 2026-05-04 15:50 | 25.95991 | -80.41382 | 5295 ft | 328 kts | 50° |
| 2026-05-04 15:50 | 25.97011 | -80.39081 | 5853 ft | 338 kts | 75° |
| 2026-05-04 15:50 | 25.97487 | -80.36512 | 6457 ft | 342 kts | 77° |
| 2026-05-04 15:50 | 25.97993 | -80.33901 | 7041 ft | 349 kts | 76° |
| 2026-05-04 15:51 | 25.98545 | -80.31249 | 7641 ft | 356 kts | 76° |
| 2026-05-04 15:51 | 25.99062 | -80.28539 | 8245 ft | 361 kts | 82° |
| 2026-05-04 15:51 | 25.99251 | -80.25726 | 8885 ft | 367 kts | 88° |
| 2026-05-04 15:51 | 25.99292 | -80.22865 | 9507 ft | 373 kts | 89° |
| 2026-05-04 15:52 | 25.99330 | -80.19972 | 10260 ft | 372 kts | 88° |
| 2026-05-04 15:52 | 25.99404 | -80.17119 | 10888 ft | 378 kts | 88° |
| 2026-05-04 15:52 | 25.99511 | -80.14167 | 11380 ft | 386 kts | 87° |
| 2026-05-04 15:52 | 25.99634 | -80.11155 | 11905 ft | 392 kts | 86° |
| 2026-05-04 15:53 | 26.00022 | -80.08140 | 12400 ft | 397 kts | 76° |
| 2026-05-04 15:53 | 26.00679 | -80.05133 | 12933 ft | 403 kts | 74° |
| 2026-05-04 15:53 | 26.01403 | -80.02096 | 13476 ft | 409 kts | 73° |
| 2026-05-04 15:53 | 26.02163 | -79.98996 | 13748 ft | 424 kts | 73° |
| 2026-05-04 15:54 | 26.03069 | -79.95817 | 13989 ft | 436 kts | 66° |
| 2026-05-04 15:54 | 26.04322 | -79.92727 | 14410 ft | 441 kts | 62° |
| 2026-05-04 15:54 | 26.05665 | -79.89638 | 14918 ft | 445 kts | 62° |
| 2026-05-04 15:54 | 26.07023 | -79.86535 | 15496 ft | 447 kts | 62° |
| 2026-05-04 15:55 | 26.08383 | -79.83408 | 16080 ft | 450 kts | 62° |
| 2026-05-04 15:55 | 26.09740 | -79.80259 | 16620 ft | 454 kts | 62° |
| 2026-05-04 15:55 | 26.11085 | -79.77113 | 17122 ft | 458 kts | 63° |
| 2026-05-04 15:55 | 26.12451 | -79.73897 | 17630 ft | 462 kts | 63° |
| 2026-05-04 15:56 | 26.13828 | -79.70650 | 18134 ft | 466 kts | 63° |
| 2026-05-04 15:56 | 26.15212 | -79.67376 | 18598 ft | 469 kts | 63° |
| 2026-05-04 15:56 | 26.16604 | -79.64084 | 19064 ft | 472 kts | 63° |
| 2026-05-04 15:56 | 26.18003 | -79.60772 | 19513 ft | 474 kts | 63° |
| 2026-05-04 15:57 | 26.19414 | -79.57432 | 19967 ft | 477 kts | 63° |
| 2026-05-04 15:57 | 26.20826 | -79.54086 | 20420 ft | 479 kts | 63° |
| 2026-05-04 15:57 | 26.22251 | -79.50708 | 20865 ft | 482 kts | 63° |
| 2026-05-04 15:57 | 26.23682 | -79.47311 | 21305 ft | 485 kts | 63° |
| 2026-05-04 15:58 | 26.25120 | -79.43897 | 21742 ft | 488 kts | 63° |
| 2026-05-04 15:58 | 26.26567 | -79.40467 | 22178 ft | 489 kts | 61° |
| 2026-05-04 15:58 | 26.28262 | -79.37215 | 22509 ft | 490 kts | 50° |
| 2026-05-04 15:58 | 26.30473 | -79.34310 | 22899 ft | 487 kts | 40° |
| 2026-05-04 15:59 | 26.33012 | -79.31833 | 23330 ft | 484 kts | 31° |
| 2026-05-04 15:59 | 26.35833 | -79.29805 | 23721 ft | 480 kts | 24° |
| 2026-05-04 15:59 | 26.38778 | -79.28191 | 24064 ft | 478 kts | 17° |
| 2026-05-04 15:59 | 26.41909 | -79.27008 | 24391 ft | 474 kts | 9° |
| 2026-05-04 16:00 | 26.45103 | -79.26065 | 24726 ft | 475 kts | 8° |
| 2026-05-04 16:00 | 26.48358 | -79.25152 | 25094 ft | 476 kts | 7° |
| 2026-05-04 16:00 | 26.51558 | -79.24260 | 25601 ft | 475 kts | 7° |
| 2026-05-04 16:00 | 26.54739 | -79.23367 | 25858 ft | 479 kts | 7° |
| 2026-05-04 16:01 | 26.57996 | -79.22438 | 26097 ft | 484 kts | 7° |
| 2026-05-04 16:01 | 26.61267 | -79.21490 | 26401 ft | 487 kts | 8° |
| 2026-05-04 16:01 | 26.64542 | -79.20529 | 26758 ft | 489 kts | 8° |
| 2026-05-04 16:01 | 26.67853 | -79.19550 | 27126 ft | 490 kts | 8° |
| 2026-05-04 16:02 | 26.71156 | -79.18571 | 27440 ft | 493 kts | 8° |
| 2026-05-04 16:02 | 26.74477 | -79.17586 | 27724 ft | 495 kts | 7° |
| 2026-05-04 16:02 | 26.81180 | -79.15598 | 28324 ft | 500 kts | 7° |
| 2026-05-04 16:03 | 26.84543 | -79.14600 | 28611 ft | 502 kts | 7° |
| 2026-05-04 16:03 | 26.87926 | -79.13596 | 28877 ft | 504 kts | 7° |
| 2026-05-04 16:03 | 26.91326 | -79.12586 | 29125 ft | 506 kts | 7° |
| 2026-05-04 16:03 | 26.94736 | -79.11574 | 29371 ft | 508 kts | 7° |
| 2026-05-04 16:04 | 26.98156 | -79.10557 | 29632 ft | 509 kts | 7° |
| 2026-05-04 16:04 | 27.05005 | -79.08517 | 30302 ft | 508 kts | 7° |
| 2026-05-04 16:04 | 27.08373 | -79.07511 | 30617 ft | 506 kts | 7° |
| 2026-05-04 16:05 | 27.11773 | -79.06497 | 30929 ft | 505 kts | 7° |
| 2026-05-04 16:05 | 27.15177 | -79.05482 | 31009 ft | 508 kts | 7° |
| 2026-05-04 16:06 | 27.25419 | -79.02427 | 31080 ft | 506 kts | 7° |
| 2026-05-04 16:07 | 27.39041 | -78.98352 | 31092 ft | 507 kts | 7° |
| 2026-05-04 16:08 | 27.52642 | -78.94272 | 31089 ft | 507 kts | 7° |
| 2026-05-04 16:09 | 27.69730 | -78.89132 | 31097 ft | 508 kts | 7° |
| 2026-05-04 16:10 | 27.83390 | -78.85010 | 31086 ft | 508 kts | 7° |
| 2026-05-04 16:11 | 27.97023 | -78.80887 | 31102 ft | 508 kts | 7° |
| 2026-05-04 16:12 | 28.17521 | -78.74666 | 31109 ft | 508 kts | 7° |
| 2026-05-04 16:13 | 28.31195 | -78.70504 | 31113 ft | 509 kts | 7° |
| 2026-05-04 16:14 | 28.43740 | -78.66675 | 31116 ft | 510 kts | 7° |
| 2026-05-04 16:16 | 28.60890 | -78.61424 | 31126 ft | 511 kts | 7° |
| 2026-05-04 16:17 | 28.78037 | -78.56253 | 31126 ft | 512 kts | 7° |
| 2026-05-04 16:18 | 28.91809 | -78.51995 | 31131 ft | 513 kts | 7° |
| 2026-05-04 16:19 | 29.09046 | -78.46640 | 31135 ft | 514 kts | 8° |
| 2026-05-04 16:20 | 29.26333 | -78.42905 | 31147 ft | 496 kts | 351° |
| 2026-05-04 16:22 | 29.43448 | -78.44298 | 31157 ft | 496 kts | 348° |
| 2026-05-04 16:22 | 29.53903 | -78.45134 | 31160 ft | 507 kts | 348° |
| 2026-05-04 16:23 | 29.64548 | -78.45956 | 31162 ft | 514 kts | 348° |
| 2026-05-04 16:25 | 29.86131 | -78.47636 | 31156 ft | 521 kts | 348° |
| 2026-05-04 16:26 | 30.11384 | -78.49617 | 31162 ft | 521 kts | 348° |
| 2026-05-04 16:28 | 30.29512 | -78.51045 | 31165 ft | 522 kts | 348° |
| 2026-05-04 16:29 | 30.55161 | -78.50008 | 31175 ft | 540 kts | 1° |
| 2026-05-04 16:31 | 30.73731 | -78.46890 | 31169 ft | 539 kts | 0° |
| 2026-05-04 16:32 | 30.96081 | -78.43259 | 31173 ft | 540 kts | 0° |
| 2026-05-04 16:33 | 31.10950 | -78.40825 | 31174 ft | 540 kts | 0° |
| 2026-05-04 16:34 | 31.22071 | -78.39000 | 31175 ft | 540 kts | 0° |
| 2026-05-04 16:35 | 31.44397 | -78.35322 | 31182 ft | 540 kts | 360° |
| 2026-05-04 16:36 | 31.55554 | -78.33478 | 31182 ft | 539 kts | 360° |
| 2026-05-04 16:37 | 31.66683 | -78.31634 | 31174 ft | 538 kts | 360° |
| 2026-05-04 16:38 | 31.81540 | -78.29167 | 31175 ft | 539 kts | 359° |
| 2026-05-04 16:39 | 31.99967 | -78.24698 | 31185 ft | 550 kts | 8° |
| 2026-05-04 16:40 | 32.14650 | -78.19559 | 31183 ft | 550 kts | 8° |
| 2026-05-04 16:41 | 32.33028 | -78.13302 | 31182 ft | 550 kts | 7° |
| 2026-05-04 16:43 | 32.51392 | -78.07022 | 31178 ft | 550 kts | 7° |
| 2026-05-04 16:43 | 32.62439 | -78.03228 | 31182 ft | 550 kts | 7° |
| 2026-05-04 16:45 | 32.84459 | -77.95639 | 31171 ft | 550 kts | 7° |
| 2026-05-04 16:46 | 33.02822 | -77.89279 | 31174 ft | 549 kts | 7° |
| 2026-05-04 16:47 | 33.17489 | -77.84180 | 31171 ft | 548 kts | 7° |
| 2026-05-04 16:48 | 33.32124 | -77.79075 | 31163 ft | 547 kts | 7° |
| 2026-05-04 16:49 | 33.46698 | -77.73973 | 31160 ft | 546 kts | 7° |
| 2026-05-04 16:50 | 33.61284 | -77.68848 | 31164 ft | 545 kts | 7° |
| 2026-05-04 16:51 | 33.72211 | -77.64998 | 31161 ft | 545 kts | 7° |
| 2026-05-04 16:52 | 33.86765 | -77.59853 | 31155 ft | 545 kts | 7° |
| 2026-05-04 16:53 | 33.97670 | -77.55987 | 31152 ft | 544 kts | 7° |
| 2026-05-04 16:54 | 34.12209 | -77.50816 | 31151 ft | 545 kts | 7° |
| 2026-05-04 16:55 | 34.34006 | -77.43027 | 31146 ft | 544 kts | 7° |
| 2026-05-04 16:56 | 34.52107 | -77.36528 | 31145 ft | 544 kts | 7° |
| 2026-05-04 16:57 | 34.63013 | -77.32598 | 31140 ft | 544 kts | 7° |
| 2026-05-04 16:58 | 34.77517 | -77.27354 | 31143 ft | 544 kts | 7° |
| 2026-05-04 17:00 | 34.99289 | -77.19446 | 31156 ft | 545 kts | 7° |
| 2026-05-04 17:00 | 35.08978 | -77.15915 | 31564 ft | 545 kts | 6° |
| 2026-05-04 17:01 | 35.16232 | -77.13260 | 31950 ft | 544 kts | 6° |
| 2026-05-04 17:01 | 35.23480 | -77.10605 | 32348 ft | 542 kts | 6° |
| 2026-05-04 17:02 | 35.30527 | -77.07996 | 33110 ft | 520 kts | 5° |
| 2026-05-04 17:03 | 35.40882 | -77.04202 | 33115 ft | 515 kts | 5° |
| 2026-05-04 17:03 | 35.51147 | -77.00432 | 33126 ft | 515 kts | 5° |
| 2026-05-04 17:04 | 35.64891 | -76.95349 | 33117 ft | 515 kts | 5° |
| 2026-05-04 17:05 | 35.78653 | -76.90245 | 33111 ft | 521 kts | 6° |
| 2026-05-04 17:06 | 35.89155 | -76.86298 | 33105 ft | 533 kts | 8° |
| 2026-05-04 17:07 | 35.96066 | -76.82515 | 33113 ft | 553 kts | 19° |
| 2026-05-04 17:07 | 35.98305 | -76.81012 | 33112 ft | 555 kts | 19° |
| 2026-05-04 17:07 | 36.06231 | -76.75555 | 33120 ft | 559 kts | 20° |
| 2026-05-04 17:08 | 36.16495 | -76.68573 | 33107 ft | 561 kts | 19° |
| 2026-05-04 17:09 | 36.23340 | -76.63965 | 33096 ft | 559 kts | 19° |
| 2026-05-04 17:09 | 36.30116 | -76.59401 | 33083 ft | 557 kts | 19° |
| 2026-05-04 17:10 | 36.47128 | -76.47887 | 33083 ft | 556 kts | 19° |
| 2026-05-04 17:11 | 36.53904 | -76.43281 | 33082 ft | 555 kts | 20° |
| 2026-05-04 17:12 | 36.64044 | -76.36373 | 33081 ft | 553 kts | 20° |
| 2026-05-04 17:13 | 36.80896 | -76.24846 | 33048 ft | 552 kts | 20° |
| 2026-05-04 17:14 | 36.94343 | -76.15607 | 33053 ft | 550 kts | 20° |
| 2026-05-04 17:15 | 37.04329 | -76.08719 | 33055 ft | 548 kts | 21° |
| 2026-05-04 17:16 | 37.17815 | -76.00031 | 33063 ft | 540 kts | 15° |
| 2026-05-04 17:17 | 37.31561 | -75.92460 | 33064 ft | 538 kts | 16° |
| 2026-05-04 17:18 | 37.45162 | -75.84804 | 33065 ft | 536 kts | 17° |
| 2026-05-04 17:19 | 37.58751 | -75.77118 | 33067 ft | 534 kts | 17° |
| 2026-05-04 17:20 | 37.72291 | -75.69433 | 33064 ft | 532 kts | 17° |
| 2026-05-04 17:20 | 37.77996 | -75.66186 | 32845 ft | 531 kts | 18° |
| 2026-05-04 17:20 | 37.81304 | -75.64295 | 33202 ft | 509 kts | 19° |
| 2026-05-04 17:21 | 37.87414 | -75.60011 | 33055 ft | 496 kts | 29° |
| 2026-05-04 17:21 | 37.93002 | -75.55004 | 33059 ft | 492 kts | 30° |
| 2026-05-04 17:22 | 37.98539 | -75.49891 | 33064 ft | 498 kts | 31° |
| 2026-05-04 17:23 | 38.09727 | -75.39516 | 33040 ft | 496 kts | 30° |
| 2026-05-04 17:24 | 38.18086 | -75.31775 | 33039 ft | 496 kts | 31° |
| 2026-05-04 17:25 | 38.29244 | -75.21404 | 33049 ft | 497 kts | 31° |
| 2026-05-04 17:26 | 38.40492 | -75.10907 | 33030 ft | 503 kts | 31° |
| 2026-05-04 17:27 | 38.54043 | -74.96918 | 33050 ft | 504 kts | 36° |
| 2026-05-04 17:28 | 38.64951 | -74.85656 | 33040 ft | 503 kts | 33° |
| 2026-05-04 17:29 | 38.80991 | -74.68307 | 33044 ft | 505 kts | 38° |
| 2026-05-04 17:31 | 38.93955 | -74.53032 | 33044 ft | 506 kts | 37° |
| 2026-05-04 17:32 | 39.07359 | -74.38553 | 33041 ft | 504 kts | 35° |
| 2026-05-04 17:33 | 39.18122 | -74.26928 | 33036 ft | 505 kts | 35° |
| 2026-05-04 17:34 | 39.28862 | -74.15241 | 33033 ft | 505 kts | 36° |
| 2026-05-04 17:35 | 39.42236 | -74.00621 | 33030 ft | 505 kts | 36° |
| 2026-05-04 17:36 | 39.47582 | -73.94752 | 33030 ft | 504 kts | 36° |
| 2026-05-04 17:36 | 39.52849 | -73.88951 | 33020 ft | 489 kts | 36° |
| 2026-05-04 17:37 | 39.58005 | -73.83268 | 33021 ft | 485 kts | 36° |
| 2026-05-04 17:37 | 39.63163 | -73.77580 | 33035 ft | 488 kts | 36° |
| 2026-05-04 17:38 | 39.68352 | -73.71841 | 33030 ft | 489 kts | 36° |
| 2026-05-04 17:38 | 39.73521 | -73.66106 | 33007 ft | 488 kts | 36° |
| 2026-05-04 17:39 | 39.81271 | -73.57488 | 33015 ft | 488 kts | 36° |
| 2026-05-04 17:39 | 39.86442 | -73.51729 | 33015 ft | 490 kts | 36° |
| 2026-05-04 17:40 | 39.91588 | -73.45998 | 33018 ft | 489 kts | 36° |
| 2026-05-04 17:40 | 39.96764 | -73.40223 | 33017 ft | 489 kts | 36° |
| 2026-05-04 17:41 | 40.01931 | -73.34445 | 33023 ft | 490 kts | 36° |
| 2026-05-04 17:41 | 40.07103 | -73.28648 | 33020 ft | 490 kts | 36° |
| 2026-05-04 17:42 | 40.12278 | -73.22833 | 33013 ft | 490 kts | 36° |
| 2026-05-04 17:42 | 40.17402 | -73.17054 | 33012 ft | 489 kts | 36° |
| 2026-05-04 17:43 | 40.22558 | -73.11228 | 33012 ft | 489 kts | 36° |
| 2026-05-04 17:43 | 40.27712 | -73.05394 | 33012 ft | 489 kts | 37° |
| 2026-05-04 17:44 | 40.32865 | -72.99549 | 33012 ft | 490 kts | 37° |
| 2026-05-04 17:44 | 40.38014 | -72.93695 | 33014 ft | 490 kts | 37° |
| 2026-05-04 17:45 | 40.42297 | -72.88817 | 33017 ft | 490 kts | 37° |
| 2026-05-04 17:45 | 40.47445 | -72.82940 | 33020 ft | 490 kts | 37° |
| 2026-05-04 17:46 | 40.52593 | -72.77051 | 33014 ft | 491 kts | 37° |
| 2026-05-04 17:46 | 40.57741 | -72.71149 | 33007 ft | 491 kts | 37° |
| 2026-05-04 17:47 | 40.62889 | -72.65236 | 33009 ft | 491 kts | 37° |
| 2026-05-04 17:47 | 40.67658 | -72.58786 | 33002 ft | 499 kts | 54° |
| 2026-05-04 17:48 | 40.69318 | -72.54730 | 33013 ft | 505 kts | 65° |
| 2026-05-04 17:48 | 40.70368 | -72.50294 | 32986 ft | 508 kts | 77° |
| 2026-05-04 17:48 | 40.71631 | -72.41088 | 33019 ft | 512 kts | 78° |
| 2026-05-04 17:49 | 40.72868 | -72.31817 | 33007 ft | 513 kts | 78° |
| 2026-05-04 17:49 | 40.74156 | -72.22593 | 33003 ft | 511 kts | 77° |
| 2026-05-04 17:50 | 40.75467 | -72.13431 | 32994 ft | 512 kts | 77° |
| 2026-05-04 17:50 | 40.76790 | -72.04181 | 32992 ft | 513 kts | 77° |
| 2026-05-04 17:51 | 40.78102 | -71.94924 | 33002 ft | 513 kts | 77° |
| 2026-05-04 17:51 | 40.79403 | -71.85666 | 32999 ft | 513 kts | 78° |
| 2026-05-04 17:52 | 40.80698 | -71.76391 | 32998 ft | 515 kts | 78° |
| 2026-05-04 17:52 | 40.81991 | -71.67077 | 32999 ft | 515 kts | 78° |
| 2026-05-04 17:53 | 40.83277 | -71.57754 | 32994 ft | 515 kts | 78° |
| 2026-05-04 17:53 | 40.84554 | -71.48442 | 32995 ft | 516 kts | 78° |
| 2026-05-04 17:54 | 40.85826 | -71.39106 | 33000 ft | 516 kts | 78° |
| 2026-05-04 17:54 | 40.87085 | -71.29808 | 33004 ft | 518 kts | 78° |
| 2026-05-04 17:55 | 40.88345 | -71.20439 | 33003 ft | 518 kts | 78° |
| 2026-05-04 17:55 | 40.89601 | -71.11039 | 33007 ft | 518 kts | 79° |
| 2026-05-04 17:56 | 40.90849 | -71.01644 | 33014 ft | 519 kts | 79° |
| 2026-05-04 17:56 | 40.92082 | -70.92299 | 33017 ft | 520 kts | 79° |
| 2026-05-04 17:57 | 40.93318 | -70.82867 | 33018 ft | 520 kts | 79° |
| 2026-05-04 17:57 | 40.94549 | -70.73415 | 33015 ft | 521 kts | 79° |
| 2026-05-04 17:58 | 40.95771 | -70.63969 | 33014 ft | 520 kts | 79° |
| 2026-05-04 17:58 | 40.96978 | -70.54572 | 33018 ft | 521 kts | 79° |
| 2026-05-04 17:59 | 40.98185 | -70.45116 | 33019 ft | 522 kts | 79° |
| 2026-05-04 18:00 | 40.99987 | -70.30876 | 33011 ft | 523 kts | 80° |
| 2026-05-04 18:00 | 41.01179 | -70.21373 | 33001 ft | 523 kts | 80° |
| 2026-05-04 18:01 | 41.02367 | -70.11846 | 33006 ft | 524 kts | 80° |
| 2026-05-04 18:01 | 41.03547 | -70.02308 | 33002 ft | 526 kts | 80° |
| 2026-05-04 18:02 | 41.05296 | -69.88048 | 32997 ft | 524 kts | 80° |
| 2026-05-04 18:02 | 41.06628 | -69.78550 | 32998 ft | 524 kts | 73° |
| 2026-05-04 18:03 | 41.09118 | -69.69492 | 33014 ft | 524 kts | 63° |
| 2026-05-04 18:03 | 41.12623 | -69.61007 | 33018 ft | 524 kts | 58° |
| 2026-05-04 18:04 | 41.16287 | -69.52638 | 33003 ft | 524 kts | 58° |
| 2026-05-04 18:05 | 41.21718 | -69.40037 | 33004 ft | 524 kts | 58° |
| 2026-05-04 18:05 | 41.25280 | -69.31648 | 33007 ft | 525 kts | 58° |
| 2026-05-04 18:06 | 41.30649 | -69.18946 | 33004 ft | 525 kts | 58° |
| 2026-05-04 18:06 | 41.34225 | -69.10464 | 33001 ft | 525 kts | 59° |
| 2026-05-04 18:07 | 41.37797 | -69.01971 | 33006 ft | 526 kts | 59° |
| 2026-05-04 18:07 | 41.41369 | -68.93456 | 33003 ft | 527 kts | 59° |
| 2026-05-04 18:08 | 41.44934 | -68.84929 | 32996 ft | 526 kts | 59° |
| 2026-05-04 18:08 | 41.48490 | -68.76400 | 32999 ft | 526 kts | 59° |
| 2026-05-04 18:09 | 41.55571 | -68.59345 | 33000 ft | 528 kts | 59° |
| 2026-05-04 18:10 | 41.59122 | -68.50755 | 32993 ft | 528 kts | 59° |
| 2026-05-04 18:10 | 41.62664 | -68.42161 | 32989 ft | 528 kts | 59° |
| 2026-05-04 18:11 | 41.66206 | -68.33545 | 32988 ft | 527 kts | 59° |
| 2026-05-04 18:11 | 41.69701 | -68.25015 | 32986 ft | 521 kts | 59° |
| 2026-05-04 18:12 | 41.73174 | -68.16517 | 32977 ft | 519 kts | 59° |
| 2026-05-04 18:12 | 41.76639 | -68.08014 | 32989 ft | 520 kts | 59° |
| 2026-05-04 18:13 | 41.80106 | -67.99481 | 32989 ft | 522 kts | 60° |
| 2026-05-04 18:14 | 41.85280 | -67.86698 | 32978 ft | 522 kts | 60° |
| 2026-05-04 18:14 | 41.88743 | -67.78112 | 32975 ft | 523 kts | 60° |
| 2026-05-04 18:15 | 41.95663 | -67.60876 | 32971 ft | 524 kts | 60° |
| 2026-05-04 18:16 | 41.99123 | -67.52221 | 32968 ft | 526 kts | 60° |
| 2026-05-04 18:16 | 42.02557 | -67.43604 | 32970 ft | 526 kts | 60° |
| 2026-05-04 18:17 | 42.07726 | -67.30586 | 32965 ft | 526 kts | 60° |
| 2026-05-04 18:18 | 42.12892 | -67.17516 | 32966 ft | 527 kts | 60° |
| 2026-05-04 18:18 | 42.16335 | -67.08772 | 32963 ft | 528 kts | 60° |
| 2026-05-04 18:19 | 42.21249 | -66.95462 | 32958 ft | 529 kts | 67° |
| 2026-05-04 18:19 | 42.23975 | -66.86289 | 32959 ft | 530 kts | 68° |
| 2026-05-04 18:20 | 42.26682 | -66.77019 | 32956 ft | 531 kts | 68° |
| 2026-05-04 18:20 | 42.29415 | -66.67744 | 32954 ft | 531 kts | 68° |
| 2026-05-04 18:21 | 42.32158 | -66.58488 | 32943 ft | 531 kts | 68° |
| 2026-05-04 18:21 | 42.34901 | -66.49217 | 32958 ft | 531 kts | 68° |
| 2026-05-04 18:22 | 42.37643 | -66.39913 | 32953 ft | 532 kts | 68° |
| 2026-05-04 18:22 | 42.40360 | -66.30650 | 32941 ft | 533 kts | 68° |
| 2026-05-04 18:23 | 42.43105 | -66.21256 | 32956 ft | 533 kts | 68° |
| 2026-05-04 18:23 | 42.45807 | -66.11976 | 32942 ft | 533 kts | 68° |
| 2026-05-04 18:24 | 42.48523 | -66.02616 | 32940 ft | 533 kts | 68° |
| 2026-05-04 18:24 | 42.51232 | -65.93242 | 32943 ft | 534 kts | 68° |
| 2026-05-04 18:25 | 42.53936 | -65.83854 | 32936 ft | 535 kts | 68° |
| 2026-05-04 18:25 | 42.56632 | -65.74457 | 32941 ft | 535 kts | 68° |
| 2026-05-04 18:26 | 42.59327 | -65.65029 | 32939 ft | 535 kts | 68° |
| 2026-05-04 18:26 | 42.62011 | -65.55605 | 32940 ft | 535 kts | 68° |
| 2026-05-04 18:27 | 42.64672 | -65.46227 | 32942 ft | 536 kts | 69° |
| 2026-05-04 18:27 | 42.67353 | -65.36742 | 32935 ft | 537 kts | 69° |
| 2026-05-04 18:28 | 42.70022 | -65.27265 | 32934 ft | 537 kts | 69° |
| 2026-05-04 18:28 | 42.72685 | -65.17770 | 32937 ft | 537 kts | 69° |
| 2026-05-04 18:29 | 42.75346 | -65.08249 | 32933 ft | 538 kts | 69° |
| 2026-05-04 18:29 | 42.78001 | -64.98713 | 32935 ft | 539 kts | 69° |
| 2026-05-04 18:30 | 42.81952 | -64.84454 | 32933 ft | 540 kts | 69° |
| 2026-05-04 18:31 | 42.84595 | -64.74866 | 32932 ft | 540 kts | 69° |
| 2026-05-04 18:31 | 42.86789 | -64.66883 | 32931 ft | 540 kts | 69° |
| 2026-05-04 18:32 | 42.89417 | -64.57284 | 32934 ft | 541 kts | 69° |
| 2026-05-04 18:32 | 42.92470 | -64.46083 | 32937 ft | 542 kts | 69° |
| 2026-05-04 18:33 | 42.94666 | -64.37998 | 32927 ft | 542 kts | 69° |
| 2026-05-04 18:33 | 42.97280 | -64.28337 | 32924 ft | 543 kts | 69° |
| 2026-05-04 18:34 | 42.99888 | -64.18658 | 32927 ft | 543 kts | 70° |
| 2026-05-04 18:34 | 43.02472 | -64.09031 | 32927 ft | 544 kts | 70° |
| 2026-05-04 18:35 | 43.05071 | -63.99309 | 32925 ft | 544 kts | 70° |
| 2026-05-04 18:35 | 43.07660 | -63.89587 | 32924 ft | 544 kts | 70° |
| 2026-05-04 18:36 | 43.10242 | -63.79853 | 32922 ft | 545 kts | 70° |
| 2026-05-04 18:36 | 43.12822 | -63.70084 | 32926 ft | 546 kts | 70° |
| 2026-05-04 18:37 | 43.15399 | -63.60289 | 32919 ft | 547 kts | 70° |
| 2026-05-04 18:37 | 43.17971 | -63.50471 | 32922 ft | 547 kts | 70° |
| 2026-05-04 18:38 | 43.20511 | -63.40736 | 32915 ft | 545 kts | 70° |
| 2026-05-04 18:38 | 43.23060 | -63.30926 | 32920 ft | 546 kts | 70° |
| 2026-05-04 18:39 | 43.25606 | -63.21089 | 32921 ft | 548 kts | 70° |
| 2026-05-04 18:39 | 43.28149 | -63.11221 | 32912 ft | 548 kts | 70° |
| 2026-05-04 18:40 | 43.30681 | -63.01353 | 32909 ft | 547 kts | 70° |
| 2026-05-04 18:40 | 43.33204 | -62.91483 | 32914 ft | 547 kts | 70° |
| 2026-05-04 18:41 | 43.35702 | -62.81664 | 32911 ft | 548 kts | 70° |
| 2026-05-04 18:41 | 43.38214 | -62.71755 | 32914 ft | 549 kts | 70° |
| 2026-05-04 18:42 | 43.40717 | -62.61835 | 32905 ft | 549 kts | 70° |
| 2026-05-04 18:42 | 43.43208 | -62.51920 | 32906 ft | 548 kts | 70° |
| 2026-05-04 18:43 | 43.45695 | -62.41983 | 32903 ft | 550 kts | 70° |
| 2026-05-04 18:43 | 43.48165 | -62.32066 | 32903 ft | 550 kts | 71° |
| 2026-05-04 18:44 | 43.50642 | -62.22082 | 32894 ft | 550 kts | 71° |
| 2026-05-04 18:44 | 43.53109 | -62.12092 | 32889 ft | 550 kts | 71° |
| 2026-05-04 18:45 | 43.55566 | -62.02101 | 32892 ft | 550 kts | 71° |
| 2026-05-04 18:45 | 43.58018 | -61.92087 | 32887 ft | 552 kts | 71° |
| 2026-05-04 18:46 | 43.60466 | -61.82047 | 32882 ft | 552 kts | 71° |
| 2026-05-04 18:46 | 43.62887 | -61.72070 | 32883 ft | 551 kts | 71° |
| 2026-05-04 18:47 | 43.65311 | -61.62038 | 32873 ft | 550 kts | 71° |
| 2026-05-04 18:47 | 43.67726 | -61.52000 | 32877 ft | 550 kts | 71° |
| 2026-05-04 18:48 | 43.70134 | -61.41947 | 32878 ft | 551 kts | 71° |
| 2026-05-04 18:48 | 43.72534 | -61.31882 | 32870 ft | 551 kts | 71° |
| 2026-05-04 18:49 | 43.74925 | -61.21807 | 32865 ft | 550 kts | 71° |
| 2026-05-04 18:49 | 43.77285 | -61.11817 | 32870 ft | 550 kts | 71° |
| 2026-05-04 18:50 | 43.79654 | -61.01748 | 32868 ft | 550 kts | 71° |
| 2026-05-04 18:50 | 43.82012 | -60.91679 | 32853 ft | 550 kts | 71° |
| 2026-05-04 18:51 | 43.84361 | -60.81603 | 32858 ft | 550 kts | 71° |
| 2026-05-04 18:51 | 43.86702 | -60.71517 | 32847 ft | 550 kts | 71° |
| 2026-05-04 18:52 | 43.89034 | -60.61421 | 32841 ft | 550 kts | 71° |
| 2026-05-04 18:52 | 43.91361 | -60.51298 | 32827 ft | 551 kts | 72° |
| 2026-05-04 18:53 | 43.93679 | -60.41169 | 32829 ft | 551 kts | 72° |
| 2026-05-04 18:53 | 43.95991 | -60.31022 | 32844 ft | 550 kts | 72° |
| 2026-05-04 18:54 | 43.98273 | -60.20956 | 32829 ft | 550 kts | 72° |
| 2026-05-04 18:54 | 44.00564 | -60.10805 | 32845 ft | 550 kts | 72° |
| 2026-05-04 18:55 | 44.02849 | -60.00634 | 32831 ft | 551 kts | 72° |
| 2026-05-04 18:55 | 44.06259 | -59.85365 | 32844 ft | 551 kts | 72° |
| 2026-05-04 18:56 | 44.08501 | -59.75262 | 32838 ft | 549 kts | 72° |
| 2026-05-04 18:56 | 44.10744 | -59.65109 | 32820 ft | 548 kts | 72° |
| 2026-05-04 18:57 | 44.12978 | -59.54952 | 32831 ft | 549 kts | 72° |
| 2026-05-04 18:57 | 44.15201 | -59.44792 | 32817 ft | 548 kts | 72° |
| 2026-05-04 18:58 | 44.17414 | -59.34630 | 32839 ft | 548 kts | 72° |
| 2026-05-04 18:58 | 44.19622 | -59.24445 | 32816 ft | 549 kts | 72° |
| 2026-05-04 18:59 | 44.21802 | -59.14337 | 32822 ft | 548 kts | 73° |
| 2026-05-04 18:59 | 44.23990 | -59.04144 | 32829 ft | 548 kts | 73° |
| 2026-05-04 19:00 | 44.26167 | -58.93949 | 32813 ft | 549 kts | 73° |
| 2026-05-04 19:00 | 44.28341 | -58.83722 | 32833 ft | 550 kts | 73° |
| 2026-05-04 19:01 | 44.30512 | -58.73456 | 32822 ft | 551 kts | 73° |
| 2026-05-04 19:01 | 44.32661 | -58.63243 | 32813 ft | 551 kts | 73° |
| 2026-05-04 19:02 | 44.34809 | -58.52985 | 32811 ft | 549 kts | 73° |
| 2026-05-04 19:02 | 44.36949 | -58.42714 | 32811 ft | 550 kts | 73° |
| 2026-05-04 19:03 | 44.39078 | -58.32443 | 32811 ft | 550 kts | 74° |
| 2026-05-04 19:03 | 44.41204 | -58.22140 | 32814 ft | 551 kts | 74° |
| 2026-05-04 19:04 | 44.43317 | -58.11841 | 32810 ft | 551 kts | 74° |
| 2026-05-04 19:04 | 44.45422 | -58.01530 | 32811 ft | 550 kts | 74° |
| 2026-05-04 19:05 | 44.47502 | -57.91288 | 32807 ft | 551 kts | 74° |
| 2026-05-04 19:05 | 44.49590 | -57.80956 | 32803 ft | 550 kts | 74° |
| 2026-05-04 19:06 | 44.51666 | -57.70631 | 32805 ft | 551 kts | 75° |
| 2026-05-04 19:06 | 44.53736 | -57.60279 | 32807 ft | 552 kts | 75° |
| 2026-05-04 19:07 | 44.55782 | -57.49994 | 32800 ft | 550 kts | 75° |
| 2026-05-04 19:07 | 44.57828 | -57.39656 | 32808 ft | 550 kts | 75° |
| 2026-05-04 19:08 | 44.59867 | -57.29300 | 32811 ft | 551 kts | 75° |
| 2026-05-04 19:08 | 44.61898 | -57.18927 | 32799 ft | 550 kts | 75° |
| 2026-05-04 19:09 | 44.63915 | -57.08576 | 32798 ft | 549 kts | 75° |
| 2026-05-04 19:09 | 44.65920 | -56.98226 | 32802 ft | 549 kts | 75° |
| 2026-05-04 19:10 | 44.67918 | -56.87858 | 32796 ft | 551 kts | 75° |
| 2026-05-04 19:10 | 44.69913 | -56.77449 | 32800 ft | 551 kts | 75° |
| 2026-05-04 19:11 | 44.71882 | -56.67118 | 32791 ft | 550 kts | 76° |
| 2026-05-04 19:11 | 44.73852 | -56.56729 | 32813 ft | 550 kts | 76° |
| 2026-05-04 19:12 | 44.76790 | -56.41124 | 32789 ft | 548 kts | 76° |
| 2026-05-04 19:13 | 44.78733 | -56.30737 | 32807 ft | 549 kts | 76° |
| 2026-05-04 19:13 | 44.80660 | -56.20374 | 32797 ft | 550 kts | 76° |
| 2026-05-04 19:14 | 44.82586 | -56.09959 | 32786 ft | 549 kts | 76° |
| 2026-05-04 19:14 | 44.84503 | -55.99538 | 32792 ft | 549 kts | 76° |
| 2026-05-04 19:15 | 44.86412 | -55.89099 | 32801 ft | 550 kts | 76° |
| 2026-05-04 19:15 | 44.88313 | -55.78646 | 32790 ft | 549 kts | 76° |
| 2026-05-04 19:16 | 44.90191 | -55.68263 | 32791 ft | 548 kts | 77° |
| 2026-05-04 19:16 | 44.92067 | -55.57830 | 32795 ft | 548 kts | 77° |
| 2026-05-04 19:17 | 44.93934 | -55.47384 | 32798 ft | 548 kts | 77° |
| 2026-05-04 19:17 | 44.95794 | -55.36920 | 32801 ft | 549 kts | 77° |
| 2026-05-04 19:18 | 44.97643 | -55.26454 | 32799 ft | 549 kts | 77° |
| 2026-05-04 19:18 | 44.99483 | -55.15982 | 32792 ft | 548 kts | 77° |
| 2026-05-04 19:19 | 45.01297 | -55.05596 | 32793 ft | 548 kts | 77° |
| 2026-05-04 19:19 | 45.03117 | -54.95114 | 32800 ft | 549 kts | 77° |
| 2026-05-04 19:20 | 45.04931 | -54.84608 | 32797 ft | 550 kts | 78° |
| 2026-05-04 19:20 | 45.06734 | -54.74102 | 32793 ft | 549 kts | 78° |
| 2026-05-04 19:21 | 45.08225 | -54.65363 | 32800 ft | 549 kts | 78° |
| 2026-05-04 19:21 | 45.10009 | -54.54851 | 32800 ft | 550 kts | 78° |
| 2026-05-04 19:22 | 45.11786 | -54.44319 | 32800 ft | 549 kts | 78° |
| 2026-05-04 19:22 | 45.13549 | -54.33802 | 32802 ft | 549 kts | 78° |
| 2026-05-04 19:23 | 45.15303 | -54.23276 | 32808 ft | 549 kts | 78° |
| 2026-05-04 19:23 | 45.17039 | -54.12795 | 32804 ft | 549 kts | 78° |
| 2026-05-04 19:24 | 45.18776 | -54.02246 | 32810 ft | 550 kts | 78° |
| 2026-05-04 19:24 | 45.20507 | -53.91662 | 32809 ft | 551 kts | 79° |
| 2026-05-04 19:25 | 45.22228 | -53.81078 | 32804 ft | 549 kts | 79° |
| 2026-05-04 19:25 | 45.23934 | -53.70521 | 32809 ft | 549 kts | 79° |
| 2026-05-04 19:26 | 45.25631 | -53.59948 | 32819 ft | 550 kts | 79° |
| 2026-05-04 19:26 | 45.27310 | -53.49420 | 32813 ft | 550 kts | 79° |
| 2026-05-04 19:27 | 45.28989 | -53.38827 | 32816 ft | 550 kts | 79° |
| 2026-05-04 19:27 | 45.30659 | -53.28222 | 32827 ft | 550 kts | 79° |
| 2026-05-04 19:28 | 45.32322 | -53.17591 | 32820 ft | 551 kts | 80° |
| 2026-05-04 19:28 | 45.33977 | -53.06946 | 32816 ft | 550 kts | 80° |
| 2026-05-04 19:29 | 45.35617 | -52.96325 | 32818 ft | 550 kts | 80° |
| 2026-05-04 19:29 | 45.37247 | -52.85700 | 32838 ft | 550 kts | 80° |
| 2026-05-04 19:30 | 45.38868 | -52.75061 | 32836 ft | 550 kts | 80° |
| 2026-05-04 19:30 | 45.40471 | -52.64474 | 32830 ft | 550 kts | 81° |
| 2026-05-04 19:31 | 45.42075 | -52.53805 | 32833 ft | 551 kts | 81° |
| 2026-05-04 19:31 | 45.43670 | -52.43125 | 32838 ft | 551 kts | 81° |
| 2026-05-04 19:32 | 45.45253 | -52.32458 | 32834 ft | 550 kts | 81° |
| 2026-05-04 19:32 | 45.46825 | -52.21783 | 32839 ft | 551 kts | 81° |
| 2026-05-04 19:33 | 45.48382 | -52.11148 | 32843 ft | 550 kts | 81° |
| 2026-05-04 19:33 | 45.50192 | -52.00543 | 32850 ft | 552 kts | 74° |
| 2026-05-04 19:34 | 45.53139 | -51.90412 | 32859 ft | 554 kts | 64° |
| 2026-05-04 19:34 | 45.56595 | -51.80568 | 32842 ft | 555 kts | 64° |
| 2026-05-04 19:35 | 45.60047 | -51.70709 | 32849 ft | 554 kts | 64° |
| 2026-05-04 19:35 | 45.63438 | -51.60841 | 32849 ft | 553 kts | 65° |
| 2026-05-04 19:36 | 45.66795 | -51.50950 | 32851 ft | 552 kts | 65° |
| 2026-05-04 19:36 | 45.70138 | -51.41055 | 32852 ft | 553 kts | 65° |
| 2026-05-04 19:37 | 45.73476 | -51.31151 | 32852 ft | 552 kts | 65° |
| 2026-05-04 19:37 | 45.76808 | -51.21236 | 32853 ft | 553 kts | 65° |
| 2026-05-04 19:38 | 45.80137 | -51.11292 | 32850 ft | 553 kts | 65° |
| 2026-05-04 19:38 | 45.83430 | -51.01418 | 32851 ft | 552 kts | 66° |
| 2026-05-04 19:39 | 45.86736 | -50.91469 | 32851 ft | 551 kts | 66° |
| 2026-05-04 19:39 | 45.90024 | -50.81535 | 32856 ft | 551 kts | 66° |
| 2026-05-04 19:40 | 45.93308 | -50.71574 | 32854 ft | 552 kts | 66° |
| 2026-05-04 19:40 | 45.96588 | -50.61590 | 32855 ft | 552 kts | 66° |
| 2026-05-04 19:41 | 45.99853 | -50.51610 | 32859 ft | 551 kts | 66° |
| 2026-05-04 19:41 | 46.03094 | -50.41669 | 32860 ft | 551 kts | 66° |
| 2026-05-04 19:42 | 46.06341 | -50.31667 | 32861 ft | 552 kts | 67° |
| 2026-05-04 19:42 | 46.09583 | -50.21643 | 32860 ft | 551 kts | 67° |
| 2026-05-04 19:43 | 46.12810 | -50.11631 | 32863 ft | 550 kts | 67° |
| 2026-05-04 19:43 | 46.16026 | -50.01611 | 32864 ft | 550 kts | 67° |
| 2026-05-04 19:44 | 46.19231 | -49.91583 | 32885 ft | 550 kts | 68° |
| 2026-05-04 19:44 | 46.22426 | -49.81551 | 32858 ft | 550 kts | 68° |
| 2026-05-04 19:45 | 46.25612 | -49.71509 | 32859 ft | 549 kts | 68° |
| 2026-05-04 19:45 | 46.28764 | -49.61531 | 32865 ft | 548 kts | 68° |
| 2026-05-04 19:46 | 46.31920 | -49.51506 | 32861 ft | 548 kts | 68° |
| 2026-05-04 19:46 | 46.35071 | -49.41454 | 32875 ft | 548 kts | 68° |
| 2026-05-04 19:47 | 46.38216 | -49.31381 | 32871 ft | 548 kts | 69° |
| 2026-05-04 19:47 | 46.41348 | -49.21312 | 32864 ft | 547 kts | 69° |
| 2026-05-04 19:48 | 46.44466 | -49.11248 | 32867 ft | 547 kts | 69° |
| 2026-05-04 19:48 | 46.47575 | -49.01172 | 32874 ft | 547 kts | 69° |
| 2026-05-04 19:49 | 46.50654 | -48.91153 | 32879 ft | 546 kts | 70° |
| 2026-05-04 19:49 | 46.53738 | -48.81078 | 32882 ft | 546 kts | 70° |
| 2026-05-04 19:50 | 46.56816 | -48.70984 | 32883 ft | 546 kts | 70° |
| 2026-05-04 19:50 | 46.59882 | -48.60884 | 32883 ft | 546 kts | 70° |
| 2026-05-04 19:51 | 46.62947 | -48.50750 | 32887 ft | 548 kts | 71° |
| 2026-05-04 19:51 | 46.66011 | -48.40578 | 32882 ft | 548 kts | 71° |
| 2026-05-04 19:52 | 46.69071 | -48.30378 | 32879 ft | 549 kts | 71° |
| 2026-05-04 19:52 | 46.72100 | -48.20241 | 32884 ft | 549 kts | 71° |
| 2026-05-04 19:53 | 46.75160 | -48.09955 | 32885 ft | 549 kts | 72° |
| 2026-05-04 19:53 | 46.78175 | -47.99783 | 32890 ft | 549 kts | 72° |
| 2026-05-04 19:54 | 46.81198 | -47.89537 | 32895 ft | 550 kts | 72° |
| 2026-05-04 19:54 | 46.84214 | -47.79273 | 32892 ft | 549 kts | 72° |
| 2026-05-04 19:55 | 46.87214 | -47.69022 | 32893 ft | 549 kts | 72° |
| 2026-05-04 19:55 | 46.90210 | -47.58744 | 32895 ft | 549 kts | 73° |
| 2026-05-04 19:56 | 46.93192 | -47.48464 | 32892 ft | 549 kts | 73° |
| 2026-05-04 19:56 | 46.96164 | -47.38184 | 32900 ft | 548 kts | 73° |
| 2026-05-04 19:57 | 46.99121 | -47.27908 | 32897 ft | 547 kts | 73° |
| 2026-05-04 19:57 | 47.02063 | -47.17641 | 32894 ft | 545 kts | 73° |
| 2026-05-04 19:58 | 47.04970 | -47.07454 | 32894 ft | 543 kts | 73° |
| 2026-05-04 19:58 | 47.07875 | -46.97233 | 32899 ft | 542 kts | 73° |
| 2026-05-04 19:59 | 47.10763 | -46.87027 | 32902 ft | 540 kts | 73° |
| 2026-05-04 19:59 | 47.13631 | -46.76847 | 32921 ft | 539 kts | 73° |
| 2026-05-04 20:00 | 47.16485 | -46.66675 | 32907 ft | 538 kts | 74° |
| 2026-05-04 20:00 | 47.19321 | -46.56523 | 32914 ft | 536 kts | 74° |
| 2026-05-04 20:01 | 47.22128 | -46.46433 | 32912 ft | 535 kts | 74° |
| 2026-05-04 20:01 | 47.24933 | -46.36311 | 32917 ft | 532 kts | 74° |
| 2026-05-04 20:02 | 47.27714 | -46.26234 | 32913 ft | 530 kts | 74° |
| 2026-05-04 20:02 | 47.30475 | -46.16182 | 32916 ft | 528 kts | 74° |
| 2026-05-04 20:03 | 47.33218 | -46.06153 | 32908 ft | 526 kts | 74° |
| 2026-05-04 20:03 | 47.35945 | -45.96142 | 32909 ft | 524 kts | 74° |
| 2026-05-04 20:04 | 47.38630 | -45.86246 | 32920 ft | 522 kts | 75° |
| 2026-05-04 20:04 | 47.41317 | -45.76298 | 32920 ft | 520 kts | 75° |
| 2026-05-04 20:05 | 47.43985 | -45.66377 | 32922 ft | 519 kts | 75° |
| 2026-05-04 20:05 | 47.46639 | -45.56463 | 32925 ft | 518 kts | 75° |
| 2026-05-04 20:06 | 47.49282 | -45.46552 | 32914 ft | 517 kts | 75° |
| 2026-05-04 20:06 | 47.51468 | -45.38326 | 32920 ft | 516 kts | 75° |
| 2026-05-04 20:07 | 47.54508 | -45.26837 | 32929 ft | 515 kts | 75° |
| 2026-05-04 20:07 | 47.57109 | -45.16957 | 32930 ft | 515 kts | 75° |
| 2026-05-04 20:08 | 47.59266 | -45.08735 | 32928 ft | 514 kts | 75° |
| 2026-05-04 20:08 | 47.61846 | -44.98860 | 32926 ft | 513 kts | 75° |
| 2026-05-04 20:09 | 47.64414 | -44.88990 | 32927 ft | 513 kts | 76° |
| 2026-05-04 20:09 | 47.66974 | -44.79108 | 32934 ft | 512 kts | 76° |
| 2026-05-04 20:10 | 47.69515 | -44.69256 | 32939 ft | 511 kts | 76° |
| 2026-05-04 20:10 | 47.72034 | -44.59454 | 32926 ft | 510 kts | 76° |
| 2026-05-04 20:11 | 47.74565 | -44.49557 | 32930 ft | 509 kts | 76° |
| 2026-05-04 20:11 | 47.77056 | -44.39769 | 32948 ft | 510 kts | 76° |
| 2026-05-04 20:12 | 47.79556 | -44.29907 | 32941 ft | 509 kts | 76° |
| 2026-05-04 20:12 | 47.82044 | -44.20059 | 32933 ft | 508 kts | 76° |
| 2026-05-04 20:13 | 47.84515 | -44.10230 | 32934 ft | 507 kts | 76° |
| 2026-05-04 20:13 | 47.86978 | -44.00382 | 32941 ft | 507 kts | 76° |
| 2026-05-04 20:14 | 47.89436 | -43.90514 | 32951 ft | 508 kts | 76° |
| 2026-05-04 20:14 | 47.91872 | -43.80696 | 32942 ft | 507 kts | 75° |
| 2026-05-04 20:15 | 47.94314 | -43.70809 | 32954 ft | 508 kts | 75° |
| 2026-05-04 20:15 | 47.96748 | -43.60911 | 32959 ft | 508 kts | 75° |
| 2026-05-04 20:16 | 47.99159 | -43.51062 | 32959 ft | 508 kts | 75° |
| 2026-05-04 20:16 | 48.01576 | -43.41145 | 32966 ft | 508 kts | 75° |
| 2026-05-04 20:17 | 48.03986 | -43.31215 | 32967 ft | 509 kts | 75° |
| 2026-05-04 20:17 | 48.06391 | -43.21256 | 32974 ft | 509 kts | 75° |
| 2026-05-04 20:18 | 48.08787 | -43.11292 | 32983 ft | 509 kts | 75° |
| 2026-05-04 20:18 | 48.11173 | -43.01325 | 32988 ft | 509 kts | 75° |
| 2026-05-04 20:19 | 48.13537 | -42.91407 | 32998 ft | 508 kts | 75° |
| 2026-05-04 20:19 | 48.15903 | -42.81430 | 33003 ft | 508 kts | 75° |
| 2026-05-04 20:20 | 48.18261 | -42.71443 | 33010 ft | 508 kts | 75° |
| 2026-05-04 20:20 | 48.20612 | -42.61440 | 33019 ft | 508 kts | 75° |
| 2026-05-04 20:21 | 48.22952 | -42.51440 | 33027 ft | 508 kts | 75° |
| 2026-05-04 20:21 | 48.26431 | -42.36485 | 33040 ft | 507 kts | 75° |
| 2026-05-04 20:22 | 48.28746 | -42.26476 | 33044 ft | 507 kts | 75° |
| 2026-05-04 20:22 | 48.31047 | -42.16478 | 33049 ft | 506 kts | 75° |
| 2026-05-04 20:23 | 48.33337 | -42.06486 | 33059 ft | 505 kts | 74° |
| 2026-05-04 20:23 | 48.35614 | -41.96498 | 33072 ft | 505 kts | 74° |
| 2026-05-04 20:24 | 48.37883 | -41.86501 | 33073 ft | 505 kts | 74° |
| 2026-05-04 20:24 | 48.40140 | -41.76510 | 33078 ft | 504 kts | 74° |
| 2026-05-04 20:25 | 48.42375 | -41.66573 | 33088 ft | 504 kts | 74° |
| 2026-05-04 20:25 | 48.44616 | -41.56555 | 33091 ft | 504 kts | 74° |
| 2026-05-04 20:26 | 48.46847 | -41.46541 | 33103 ft | 503 kts | 74° |
| 2026-05-04 20:26 | 48.49066 | -41.36529 | 33107 ft | 504 kts | 73° |
| 2026-05-04 20:27 | 48.51278 | -41.26503 | 33114 ft | 504 kts | 73° |
| 2026-05-04 20:27 | 48.53467 | -41.16533 | 33115 ft | 504 kts | 73° |
| 2026-05-04 20:28 | 48.55663 | -41.06482 | 33125 ft | 504 kts | 73° |
| 2026-05-04 20:28 | 48.57851 | -40.96419 | 33134 ft | 504 kts | 73° |
| 2026-05-04 20:29 | 48.60030 | -40.86346 | 33140 ft | 504 kts | 73° |
| 2026-05-04 20:29 | 48.62199 | -40.76275 | 33146 ft | 504 kts | 73° |
| 2026-05-04 20:30 | 48.64361 | -40.66184 | 33150 ft | 505 kts | 73° |
| 2026-05-04 20:30 | 48.66517 | -40.56071 | 33151 ft | 505 kts | 73° |
| 2026-05-04 20:31 | 48.68652 | -40.46008 | 33157 ft | 506 kts | 73° |
| 2026-05-04 20:31 | 48.70792 | -40.35867 | 33162 ft | 506 kts | 73° |
| 2026-05-04 20:32 | 48.72927 | -40.25703 | 33168 ft | 505 kts | 73° |
| 2026-05-04 20:32 | 48.75047 | -40.15559 | 33176 ft | 506 kts | 73° |
| 2026-05-04 20:33 | 48.77163 | -40.05378 | 33176 ft | 506 kts | 73° |
| 2026-05-04 20:33 | 48.79255 | -39.95270 | 33187 ft | 505 kts | 73° |
| 2026-05-04 20:34 | 48.81351 | -39.85083 | 33188 ft | 505 kts | 73° |
| 2026-05-04 20:34 | 48.83443 | -39.74868 | 33196 ft | 506 kts | 73° |
| 2026-05-04 20:35 | 48.85522 | -39.64661 | 33201 ft | 506 kts | 73° |
| 2026-05-04 20:35 | 48.87581 | -39.54503 | 33203 ft | 506 kts | 73° |
| 2026-05-04 20:36 | 48.89642 | -39.44282 | 33210 ft | 506 kts | 73° |
| 2026-05-04 20:36 | 48.91695 | -39.34043 | 33218 ft | 506 kts | 73° |
| 2026-05-04 20:37 | 48.93740 | -39.23792 | 33216 ft | 506 kts | 73° |
| 2026-05-04 20:37 | 48.95773 | -39.13550 | 33225 ft | 506 kts | 73° |
| 2026-05-04 20:38 | 48.97798 | -39.03292 | 33229 ft | 506 kts | 73° |
| 2026-05-04 20:38 | 48.99801 | -38.93090 | 33231 ft | 505 kts | 73° |
| 2026-05-04 20:39 | 49.01808 | -38.82816 | 33240 ft | 506 kts | 73° |
| 2026-05-04 20:39 | 49.03808 | -38.72524 | 33241 ft | 506 kts | 73° |
| 2026-05-04 20:40 | 49.05800 | -38.62213 | 33246 ft | 506 kts | 73° |
| 2026-05-04 20:40 | 49.07769 | -38.51971 | 33247 ft | 507 kts | 73° |
| 2026-05-04 20:41 | 49.09741 | -38.41653 | 33253 ft | 507 kts | 73° |
| 2026-05-04 20:41 | 49.11706 | -38.31318 | 33262 ft | 507 kts | 73° |
| 2026-05-04 20:42 | 49.13663 | -38.20968 | 33263 ft | 507 kts | 73° |
| 2026-05-04 20:42 | 49.15609 | -38.10620 | 33268 ft | 507 kts | 72° |
| 2026-05-04 20:43 | 49.17551 | -38.00235 | 33277 ft | 508 kts | 72° |
| 2026-05-04 20:43 | 49.19472 | -37.89903 | 33272 ft | 509 kts | 72° |
| 2026-05-04 20:44 | 49.21399 | -37.79485 | 33276 ft | 509 kts | 72° |
| 2026-05-04 20:44 | 49.23319 | -37.69041 | 33286 ft | 509 kts | 72° |
| 2026-05-04 20:45 | 49.25228 | -37.58597 | 33293 ft | 510 kts | 72° |
| 2026-05-04 20:45 | 49.27132 | -37.48122 | 33296 ft | 510 kts | 72° |
| 2026-05-04 20:46 | 49.29012 | -37.37723 | 33296 ft | 510 kts | 72° |
| 2026-05-04 20:46 | 49.30897 | -37.27231 | 33301 ft | 510 kts | 72° |
| 2026-05-04 20:47 | 49.32770 | -37.16747 | 33307 ft | 510 kts | 72° |
| 2026-05-04 20:47 | 49.34642 | -37.06209 | 33312 ft | 511 kts | 72° |
| 2026-05-04 20:48 | 49.36499 | -36.95693 | 33309 ft | 510 kts | 72° |
| 2026-05-04 20:48 | 49.38343 | -36.85184 | 33316 ft | 509 kts | 72° |
| 2026-05-04 20:49 | 49.40161 | -36.74768 | 33320 ft | 508 kts | 72° |
| 2026-05-04 20:49 | 49.41981 | -36.64275 | 33326 ft | 508 kts | 72° |
| 2026-05-04 20:50 | 49.43792 | -36.53777 | 33324 ft | 507 kts | 72° |
| 2026-05-04 20:50 | 49.45589 | -36.43290 | 33328 ft | 506 kts | 72° |
| 2026-05-04 20:51 | 49.47373 | -36.32817 | 33332 ft | 506 kts | 72° |
| 2026-05-04 20:51 | 49.49143 | -36.22366 | 33337 ft | 505 kts | 72° |
| 2026-05-04 20:52 | 49.50902 | -36.11915 | 33333 ft | 504 kts | 72° |
| 2026-05-04 20:52 | 49.52640 | -36.01529 | 33339 ft | 504 kts | 72° |
| 2026-05-04 20:53 | 49.54378 | -35.91082 | 33355 ft | 504 kts | 72° |
| 2026-05-04 20:53 | 49.56110 | -35.80606 | 33343 ft | 504 kts | 71° |
| 2026-05-04 20:54 | 49.57832 | -35.70121 | 33351 ft | 504 kts | 71° |
| 2026-05-04 20:54 | 49.59543 | -35.59636 | 33354 ft | 503 kts | 71° |
| 2026-05-04 20:55 | 49.61242 | -35.49160 | 33357 ft | 504 kts | 71° |
| 2026-05-04 20:55 | 49.62925 | -35.38724 | 33359 ft | 504 kts | 71° |
| 2026-05-04 20:56 | 49.64613 | -35.28191 | 33365 ft | 505 kts | 71° |
| 2026-05-04 20:56 | 49.66291 | -35.17652 | 33366 ft | 505 kts | 71° |
| 2026-05-04 20:57 | 49.67958 | -35.07104 | 33363 ft | 505 kts | 71° |
| 2026-05-04 20:57 | 49.69615 | -34.96562 | 33365 ft | 505 kts | 71° |
| 2026-05-04 20:58 | 49.70985 | -34.87789 | 33379 ft | 506 kts | 71° |
| 2026-05-04 20:58 | 49.72895 | -34.75488 | 33379 ft | 507 kts | 71° |
| 2026-05-04 20:59 | 49.74529 | -34.64884 | 33379 ft | 507 kts | 71° |
| 2026-05-04 20:59 | 49.75891 | -34.55993 | 33375 ft | 507 kts | 71° |
| 2026-05-04 21:00 | 49.77495 | -34.45454 | 33369 ft | 506 kts | 71° |
| 2026-05-04 21:00 | 49.79101 | -34.34837 | 33381 ft | 507 kts | 71° |
| 2026-05-04 21:01 | 49.80698 | -34.24206 | 33391 ft | 507 kts | 71° |
| 2026-05-04 21:01 | 49.82285 | -34.13562 | 33385 ft | 506 kts | 71° |
| 2026-05-04 21:02 | 49.83863 | -34.02918 | 33389 ft | 507 kts | 71° |
| 2026-05-04 21:02 | 49.85429 | -33.92276 | 33394 ft | 506 kts | 71° |
| 2026-05-04 21:03 | 49.86984 | -33.81638 | 33394 ft | 506 kts | 71° |
| 2026-05-04 21:03 | 49.88531 | -33.70983 | 33398 ft | 506 kts | 70° |
| 2026-05-04 21:04 | 49.90069 | -33.60309 | 33400 ft | 507 kts | 70° |
| 2026-05-04 21:04 | 49.91587 | -33.49707 | 33400 ft | 506 kts | 70° |
| 2026-05-04 21:05 | 49.93104 | -33.39030 | 33397 ft | 506 kts | 70° |
| 2026-05-04 21:05 | 49.94613 | -33.28342 | 33396 ft | 507 kts | 70° |
| 2026-05-04 21:06 | 49.96114 | -33.17630 | 33400 ft | 507 kts | 70° |
| 2026-05-04 21:06 | 49.97605 | -33.06913 | 33400 ft | 507 kts | 70° |
| 2026-05-04 21:07 | 49.99082 | -32.96210 | 33404 ft | 506 kts | 70° |
| 2026-05-04 21:07 | 50.00552 | -32.85498 | 33408 ft | 507 kts | 70° |
| 2026-05-04 21:08 | 50.02014 | -32.74761 | 33410 ft | 508 kts | 70° |
| 2026-05-04 21:08 | 50.03461 | -32.64054 | 33410 ft | 509 kts | 70° |
| 2026-05-04 21:09 | 50.04907 | -32.53264 | 33404 ft | 509 kts | 70° |
| 2026-05-04 21:09 | 50.06341 | -32.42480 | 33408 ft | 509 kts | 70° |
| 2026-05-04 21:10 | 50.07767 | -32.31686 | 33412 ft | 509 kts | 70° |
| 2026-05-04 21:10 | 50.09184 | -32.20880 | 33416 ft | 509 kts | 70° |
| 2026-05-04 21:11 | 50.10591 | -32.10060 | 33411 ft | 509 kts | 70° |
| 2026-05-04 21:11 | 50.11986 | -31.99252 | 33412 ft | 509 kts | 70° |
| 2026-05-04 21:12 | 50.13370 | -31.88438 | 33424 ft | 509 kts | 70° |
| 2026-05-04 21:12 | 50.14749 | -31.77595 | 33421 ft | 510 kts | 70° |
| 2026-05-04 21:13 | 50.16115 | -31.66755 | 33419 ft | 509 kts | 70° |
| 2026-05-04 21:13 | 50.17462 | -31.55983 | 33420 ft | 509 kts | 71° |
| 2026-05-04 21:14 | 50.18807 | -31.45141 | 33424 ft | 509 kts | 71° |
| 2026-05-04 21:14 | 50.20145 | -31.34276 | 33423 ft | 509 kts | 71° |
| 2026-05-04 21:15 | 50.21470 | -31.23418 | 33422 ft | 508 kts | 71° |
| 2026-05-04 21:15 | 50.22783 | -31.12571 | 33438 ft | 508 kts | 72° |
| 2026-05-04 21:16 | 50.24078 | -31.01789 | 33435 ft | 509 kts | 72° |
| 2026-05-04 21:16 | 50.25372 | -30.90924 | 33441 ft | 508 kts | 73° |
| 2026-05-04 21:17 | 50.26653 | -30.80073 | 33438 ft | 507 kts | 73° |
| 2026-05-04 21:17 | 50.27924 | -30.69213 | 33438 ft | 507 kts | 73° |
| 2026-05-04 21:18 | 50.29181 | -30.58386 | 33442 ft | 506 kts | 74° |
| 2026-05-04 21:18 | 50.30427 | -30.47559 | 33439 ft | 505 kts | 75° |
| 2026-05-04 21:19 | 50.31655 | -30.36802 | 33441 ft | 505 kts | 75° |
| 2026-05-04 21:19 | 50.32877 | -30.25996 | 33446 ft | 504 kts | 76° |
| 2026-05-04 21:20 | 50.34091 | -30.15176 | 33448 ft | 503 kts | 76° |
| 2026-05-04 21:20 | 50.35289 | -30.04400 | 33445 ft | 502 kts | 76° |
| 2026-05-04 21:21 | 50.36474 | -29.93637 | 33445 ft | 501 kts | 77° |
| 2026-05-04 21:21 | 50.37649 | -29.82877 | 33447 ft | 500 kts | 77° |
| 2026-05-04 21:22 | 50.38812 | -29.72132 | 33447 ft | 500 kts | 78° |
| 2026-05-04 21:22 | 50.39965 | -29.61388 | 33446 ft | 499 kts | 78° |
| 2026-05-04 21:23 | 50.41098 | -29.50723 | 33439 ft | 498 kts | 78° |
| 2026-05-04 21:23 | 50.42224 | -29.40032 | 33438 ft | 497 kts | 79° |
| 2026-05-04 21:24 | 50.43340 | -29.29331 | 33456 ft | 496 kts | 79° |
| 2026-05-04 21:24 | 50.44445 | -29.18649 | 33453 ft | 496 kts | 79° |
| 2026-05-04 21:25 | 50.45540 | -29.07955 | 33446 ft | 496 kts | 79° |
| 2026-05-04 21:25 | 50.46624 | -28.97278 | 33455 ft | 495 kts | 80° |
| 2026-05-04 21:26 | 50.47697 | -28.86599 | 33450 ft | 495 kts | 80° |
| 2026-05-04 21:26 | 50.48754 | -28.75981 | 33450 ft | 494 kts | 80° |
| 2026-05-04 21:27 | 50.49806 | -28.65303 | 33451 ft | 494 kts | 80° |
| 2026-05-04 21:27 | 50.50849 | -28.54621 | 33459 ft | 494 kts | 81° |
| 2026-05-04 21:28 | 50.51882 | -28.43941 | 33448 ft | 493 kts | 81° |
| 2026-05-04 21:28 | 50.52894 | -28.33358 | 33452 ft | 493 kts | 81° |
| 2026-05-04 21:29 | 50.53904 | -28.22706 | 33453 ft | 493 kts | 81° |
| 2026-05-04 21:29 | 50.54906 | -28.12025 | 33447 ft | 493 kts | 81° |
| 2026-05-04 21:30 | 50.55898 | -28.01345 | 33451 ft | 493 kts | 81° |
| 2026-05-04 21:30 | 50.56873 | -27.90738 | 33450 ft | 493 kts | 82° |
| 2026-05-04 21:31 | 50.58325 | -27.74727 | 33455 ft | 493 kts | 82° |
| 2026-05-04 21:32 | 50.59282 | -27.64044 | 33450 ft | 492 kts | 82° |
| 2026-05-04 21:32 | 50.60228 | -27.53364 | 33452 ft | 492 kts | 82° |
| 2026-05-04 21:33 | 50.61162 | -27.42706 | 33448 ft | 492 kts | 82° |
| 2026-05-04 21:33 | 50.62088 | -27.32020 | 33450 ft | 491 kts | 82° |
| 2026-05-04 21:34 | 50.62997 | -27.21416 | 33447 ft | 491 kts | 82° |
| 2026-05-04 21:34 | 50.63902 | -27.10741 | 33448 ft | 492 kts | 82° |
| 2026-05-04 21:35 | 50.64799 | -27.00052 | 33446 ft | 492 kts | 82° |
| 2026-05-04 21:35 | 50.65685 | -26.89367 | 33455 ft | 491 kts | 82° |
| 2026-05-04 21:36 | 50.66560 | -26.78688 | 33450 ft | 491 kts | 82° |
| 2026-05-04 21:36 | 50.67424 | -26.68021 | 33451 ft | 491 kts | 83° |
| 2026-05-04 21:37 | 50.68275 | -26.57394 | 33452 ft | 491 kts | 83° |
| 2026-05-04 21:37 | 50.69120 | -26.46713 | 33446 ft | 491 kts | 83° |
| 2026-05-04 21:38 | 50.69956 | -26.36026 | 33447 ft | 491 kts | 83° |
| 2026-05-04 21:38 | 50.70783 | -26.25324 | 33453 ft | 491 kts | 83° |
| 2026-05-04 21:39 | 50.71599 | -26.14625 | 33449 ft | 491 kts | 83° |
| 2026-05-04 21:39 | 50.72407 | -26.03912 | 33451 ft | 491 kts | 83° |
| 2026-05-04 21:40 | 50.73199 | -25.93271 | 33446 ft | 491 kts | 83° |
| 2026-05-04 21:40 | 50.73986 | -25.82566 | 33443 ft | 491 kts | 83° |
| 2026-05-04 21:41 | 50.74762 | -25.71860 | 33441 ft | 491 kts | 83° |
| 2026-05-04 21:41 | 50.75529 | -25.61153 | 33437 ft | 490 kts | 83° |
| 2026-05-04 21:42 | 50.76286 | -25.50437 | 33437 ft | 490 kts | 83° |
| 2026-05-04 21:42 | 50.77033 | -25.39725 | 33438 ft | 490 kts | 83° |
| 2026-05-04 21:43 | 50.77765 | -25.29086 | 33445 ft | 490 kts | 83° |
| 2026-05-04 21:43 | 50.78493 | -25.18363 | 33444 ft | 490 kts | 83° |
| 2026-05-04 21:44 | 50.79210 | -25.07655 | 33436 ft | 490 kts | 83° |
| 2026-05-04 21:44 | 50.79916 | -24.96946 | 33437 ft | 490 kts | 83° |
| 2026-05-04 21:45 | 50.80609 | -24.86296 | 33435 ft | 489 kts | 83° |
| 2026-05-04 21:45 | 50.81296 | -24.75586 | 33432 ft | 489 kts | 83° |
| 2026-05-04 21:46 | 50.81972 | -24.64892 | 33431 ft | 489 kts | 83° |
| 2026-05-04 21:46 | 50.82638 | -24.54193 | 33439 ft | 489 kts | 84° |
| 2026-05-04 21:47 | 50.83185 | -24.45292 | 33434 ft | 488 kts | 84° |
| 2026-05-04 21:47 | 50.83832 | -24.34601 | 33432 ft | 488 kts | 84° |
| 2026-05-04 21:48 | 50.84470 | -24.23905 | 33433 ft | 488 kts | 84° |
| 2026-05-04 21:48 | 50.85099 | -24.13192 | 33424 ft | 488 kts | 84° |
| 2026-05-04 21:49 | 50.85714 | -24.02542 | 33424 ft | 488 kts | 84° |
| 2026-05-04 21:49 | 50.86322 | -23.91856 | 33427 ft | 487 kts | 84° |
| 2026-05-04 21:50 | 50.86920 | -23.81146 | 33430 ft | 487 kts | 84° |
| 2026-05-04 21:50 | 50.87505 | -23.70509 | 33427 ft | 488 kts | 84° |
| 2026-05-04 21:51 | 50.88083 | -23.59815 | 33423 ft | 487 kts | 84° |
| 2026-05-04 21:51 | 50.88652 | -23.49124 | 33422 ft | 487 kts | 84° |
| 2026-05-04 21:52 | 50.89209 | -23.38443 | 33423 ft | 487 kts | 84° |
| 2026-05-04 21:52 | 50.89758 | -23.27745 | 33421 ft | 487 kts | 84° |
| 2026-05-04 21:53 | 50.90296 | -23.17063 | 33418 ft | 486 kts | 84° |
| 2026-05-04 21:53 | 50.90823 | -23.06394 | 33415 ft | 486 kts | 84° |
| 2026-05-04 21:54 | 50.91341 | -22.95722 | 33415 ft | 485 kts | 84° |
| 2026-05-04 21:54 | 50.91848 | -22.85061 | 33415 ft | 485 kts | 84° |
| 2026-05-04 21:55 | 50.92346 | -22.74396 | 33414 ft | 485 kts | 84° |
| 2026-05-04 21:55 | 50.92833 | -22.63749 | 33410 ft | 484 kts | 84° |
| 2026-05-04 21:56 | 50.93307 | -22.53181 | 33410 ft | 484 kts | 84° |
| 2026-05-04 21:56 | 50.93775 | -22.42531 | 33409 ft | 484 kts | 84° |
| 2026-05-04 21:57 | 50.94232 | -22.31899 | 33403 ft | 483 kts | 84° |
| 2026-05-04 21:57 | 50.94679 | -22.21273 | 33401 ft | 482 kts | 84° |
| 2026-05-04 21:58 | 50.95117 | -22.10653 | 33401 ft | 483 kts | 84° |
| 2026-05-04 21:58 | 50.95545 | -22.00009 | 33399 ft | 482 kts | 84° |
| 2026-05-04 21:59 | 50.95962 | -21.89398 | 33396 ft | 482 kts | 85° |
| 2026-05-04 21:59 | 50.96370 | -21.78788 | 33400 ft | 482 kts | 85° |
| 2026-05-04 22:00 | 50.96765 | -21.68252 | 33388 ft | 481 kts | 85° |
| 2026-05-04 22:00 | 50.97153 | -21.57657 | 33389 ft | 481 kts | 85° |
| 2026-05-04 22:01 | 50.97532 | -21.47053 | 33392 ft | 481 kts | 85° |
| 2026-05-04 22:01 | 50.97900 | -21.36464 | 33397 ft | 480 kts | 85° |
| 2026-05-04 22:02 | 50.98259 | -21.25889 | 33389 ft | 479 kts | 85° |
| 2026-05-04 22:02 | 50.98607 | -21.15315 | 33385 ft | 479 kts | 85° |
| 2026-05-04 22:03 | 50.98946 | -21.04750 | 33380 ft | 479 kts | 85° |
| 2026-05-04 22:03 | 50.99273 | -20.94261 | 33376 ft | 478 kts | 85° |
| 2026-05-04 22:04 | 50.99592 | -20.83713 | 33375 ft | 478 kts | 85° |
| 2026-05-04 22:04 | 50.99902 | -20.73169 | 33374 ft | 478 kts | 85° |
| 2026-05-04 22:05 | 51.00202 | -20.62621 | 33372 ft | 478 kts | 85° |
| 2026-05-04 22:05 | 51.00492 | -20.52076 | 33372 ft | 477 kts | 85° |
| 2026-05-04 22:06 | 51.00773 | -20.41537 | 33370 ft | 477 kts | 85° |
| 2026-05-04 22:06 | 51.01044 | -20.31014 | 33372 ft | 477 kts | 85° |
| 2026-05-04 22:07 | 51.01304 | -20.20563 | 33365 ft | 476 kts | 85° |
| 2026-05-04 22:07 | 51.01555 | -20.10057 | 33361 ft | 475 kts | 85° |
| 2026-05-04 22:08 | 51.01797 | -19.99572 | 33362 ft | 474 kts | 85° |
| 2026-05-04 22:08 | 51.02029 | -19.89100 | 33361 ft | 474 kts | 85° |
| 2026-05-04 22:09 | 51.02251 | -19.78646 | 33359 ft | 473 kts | 85° |
| 2026-05-04 22:09 | 51.02464 | -19.68212 | 33362 ft | 472 kts | 85° |
| 2026-05-04 22:10 | 51.02667 | -19.57790 | 33357 ft | 472 kts | 85° |
| 2026-05-04 22:10 | 51.02860 | -19.47377 | 33357 ft | 471 kts | 85° |
| 2026-05-04 22:11 | 51.03044 | -19.36970 | 33347 ft | 471 kts | 85° |
| 2026-05-04 22:11 | 51.03219 | -19.26582 | 33346 ft | 470 kts | 85° |
| 2026-05-04 22:12 | 51.03384 | -19.16196 | 33348 ft | 470 kts | 86° |
| 2026-05-04 22:12 | 51.03541 | -19.05791 | 33346 ft | 471 kts | 86° |
| 2026-05-04 22:13 | 51.03687 | -18.95458 | 33341 ft | 471 kts | 86° |
| 2026-05-04 22:13 | 51.03825 | -18.85059 | 33335 ft | 470 kts | 86° |
| 2026-05-04 22:14 | 51.03954 | -18.74661 | 33339 ft | 470 kts | 86° |
| 2026-05-04 22:14 | 51.04073 | -18.64261 | 33337 ft | 470 kts | 87° |
| 2026-05-04 22:15 | 51.04183 | -18.53867 | 33331 ft | 470 kts | 87° |
| 2026-05-04 22:15 | 51.04284 | -18.43490 | 33327 ft | 469 kts | 87° |
| 2026-05-04 22:16 | 51.04375 | -18.33104 | 33322 ft | 470 kts | 87° |
| 2026-05-04 22:16 | 51.04458 | -18.22705 | 33326 ft | 471 kts | 87° |
| 2026-05-04 22:17 | 51.04531 | -18.12315 | 33316 ft | 469 kts | 87° |
| 2026-05-04 22:17 | 51.04595 | -18.01982 | 33318 ft | 467 kts | 87° |
| 2026-05-04 22:18 | 51.04649 | -17.91739 | 33318 ft | 467 kts | 87° |
| 2026-05-04 22:18 | 51.04694 | -17.81409 | 33305 ft | 467 kts | 87° |
| 2026-05-04 22:19 | 51.04731 | -17.71073 | 33300 ft | 467 kts | 88° |
| 2026-05-04 22:19 | 51.04758 | -17.60750 | 33305 ft | 465 kts | 87° |
| 2026-05-04 22:20 | 51.04776 | -17.50471 | 33300 ft | 465 kts | 88° |
| 2026-05-04 22:20 | 51.04786 | -17.40191 | 33300 ft | 465 kts | 88° |
| 2026-05-04 22:21 | 51.04785 | -17.29980 | 33296 ft | 464 kts | 88° |
| 2026-05-04 22:21 | 51.04776 | -17.19715 | 33292 ft | 464 kts | 88° |
| 2026-05-04 22:22 | 51.04759 | -17.09472 | 33292 ft | 463 kts | 88° |
| 2026-05-04 22:22 | 51.04732 | -16.99226 | 33293 ft | 463 kts | 88° |
| 2026-05-04 22:23 | 51.04697 | -16.89000 | 33283 ft | 462 kts | 88° |
| 2026-05-04 22:23 | 51.04652 | -16.78867 | 33287 ft | 461 kts | 88° |
| 2026-05-04 22:24 | 51.04599 | -16.68673 | 33280 ft | 461 kts | 88° |
| 2026-05-04 22:24 | 51.04537 | -16.58489 | 33281 ft | 461 kts | 88° |
| 2026-05-04 22:25 | 51.04466 | -16.48321 | 33275 ft | 460 kts | 88° |
| 2026-05-04 22:25 | 51.04387 | -16.38155 | 33276 ft | 460 kts | 88° |
| 2026-05-04 22:26 | 51.04299 | -16.27998 | 33269 ft | 459 kts | 88° |
| 2026-05-04 22:26 | 51.04202 | -16.17849 | 33278 ft | 459 kts | 88° |
| 2026-05-04 22:27 | 51.04097 | -16.07780 | 33266 ft | 458 kts | 88° |
| 2026-05-04 22:27 | 51.03982 | -15.97660 | 33268 ft | 458 kts | 88° |
| 2026-05-04 22:28 | 51.03859 | -15.87520 | 33260 ft | 457 kts | 88° |
| 2026-05-04 22:28 | 51.03728 | -15.77418 | 33264 ft | 457 kts | 88° |
| 2026-05-04 22:29 | 51.03589 | -15.67396 | 33256 ft | 456 kts | 88° |
| 2026-05-04 22:29 | 51.03440 | -15.57315 | 33261 ft | 456 kts | 88° |
| 2026-05-04 22:30 | 51.03283 | -15.47233 | 33254 ft | 455 kts | 88° |
| 2026-05-04 22:30 | 51.03117 | -15.37160 | 33253 ft | 455 kts | 88° |
| 2026-05-04 22:31 | 51.02945 | -15.27177 | 33242 ft | 454 kts | 88° |
| 2026-05-04 22:31 | 51.02762 | -15.17138 | 33243 ft | 454 kts | 88° |
| 2026-05-04 22:32 | 51.02572 | -15.07118 | 33249 ft | 454 kts | 89° |
| 2026-05-04 22:32 | 51.02372 | -14.97089 | 33243 ft | 453 kts | 88° |
| 2026-05-04 22:33 | 51.02165 | -14.87077 | 33242 ft | 453 kts | 89° |
| 2026-05-04 22:33 | 51.01986 | -14.78765 | 33241 ft | 452 kts | 89° |
| 2026-05-04 22:34 | 51.01726 | -14.67139 | 33242 ft | 452 kts | 89° |
| 2026-05-04 22:34 | 51.01533 | -14.58840 | 33242 ft | 452 kts | 89° |
| 2026-05-04 22:35 | 51.01294 | -14.48865 | 33231 ft | 451 kts | 89° |
| 2026-05-04 22:35 | 51.01047 | -14.38911 | 33240 ft | 451 kts | 89° |
| 2026-05-04 22:36 | 51.00791 | -14.28954 | 33227 ft | 451 kts | 89° |
| 2026-05-04 22:36 | 51.00528 | -14.19027 | 33234 ft | 449 kts | 89° |
| 2026-05-04 22:37 | 51.00258 | -14.09116 | 33227 ft | 449 kts | 89° |
| 2026-05-04 22:37 | 50.99331 | -13.99267 | 33232 ft | 456 kts | 101° |
| 2026-05-04 22:38 | 50.97105 | -13.89850 | 33229 ft | 461 kts | 110° |
| 2026-05-04 22:38 | 50.94333 | -13.80648 | 33232 ft | 462 kts | 111° |
| 2026-05-04 22:39 | 50.91546 | -13.71474 | 33214 ft | 461 kts | 111° |
| 2026-05-04 22:39 | 50.88785 | -13.62305 | 33228 ft | 461 kts | 111° |
| 2026-05-04 22:40 | 50.86032 | -13.53132 | 33220 ft | 461 kts | 111° |
| 2026-05-04 22:40 | 50.83273 | -13.43960 | 33219 ft | 461 kts | 111° |
| 2026-05-04 22:41 | 50.80528 | -13.34869 | 33221 ft | 461 kts | 111° |
| 2026-05-04 22:41 | 50.77755 | -13.25724 | 33220 ft | 461 kts | 111° |
| 2026-05-04 22:42 | 50.74971 | -13.16578 | 33213 ft | 461 kts | 111° |
| 2026-05-04 22:42 | 50.72187 | -13.07465 | 33207 ft | 461 kts | 111° |
| 2026-05-04 22:43 | 50.69387 | -12.98335 | 33209 ft | 461 kts | 111° |
| 2026-05-04 22:43 | 50.66605 | -12.89296 | 33214 ft | 461 kts | 111° |
| 2026-05-04 22:44 | 50.63795 | -12.80202 | 33204 ft | 461 kts | 111° |
| 2026-05-04 22:44 | 50.62385 | -12.75644 | 33009 ft | 464 kts | 113° |
| 2026-05-04 22:44 | 50.60962 | -12.71056 | 33117 ft | 469 kts | 113° |
| 2026-05-04 22:45 | 50.58061 | -12.61733 | 33199 ft | 477 kts | 113° |
| 2026-05-04 22:45 | 50.53660 | -12.47673 | 33191 ft | 476 kts | 113° |
| 2026-05-04 22:46 | 50.50732 | -12.38358 | 33190 ft | 475 kts | 113° |
| 2026-05-04 22:46 | 50.47792 | -12.29040 | 33203 ft | 475 kts | 113° |
| 2026-05-04 22:47 | 50.44862 | -12.19786 | 33191 ft | 475 kts | 113° |
| 2026-05-04 22:47 | 50.41915 | -12.10513 | 33190 ft | 474 kts | 113° |
| 2026-05-04 22:48 | 50.38966 | -12.01269 | 33188 ft | 474 kts | 113° |
| 2026-05-04 22:48 | 50.36007 | -11.92028 | 33181 ft | 474 kts | 113° |
| 2026-05-04 22:49 | 50.33045 | -11.82813 | 33183 ft | 473 kts | 113° |
| 2026-05-04 22:49 | 50.30086 | -11.73638 | 33182 ft | 472 kts | 113° |
| 2026-05-04 22:50 | 50.27120 | -11.64478 | 33177 ft | 472 kts | 113° |
| 2026-05-04 22:50 | 50.24167 | -11.55392 | 33174 ft | 471 kts | 112° |
| 2026-05-04 22:51 | 50.21195 | -11.46278 | 33170 ft | 471 kts | 112° |
| 2026-05-04 22:51 | 50.18215 | -11.37175 | 33168 ft | 470 kts | 112° |
| 2026-05-04 22:52 | 50.15233 | -11.28099 | 33173 ft | 470 kts | 112° |
| 2026-05-04 22:52 | 50.12250 | -11.19052 | 33158 ft | 468 kts | 112° |
| 2026-05-04 22:53 | 50.09267 | -11.10036 | 33161 ft | 468 kts | 112° |
| 2026-05-04 22:53 | 50.06276 | -11.01030 | 33160 ft | 468 kts | 112° |
| 2026-05-04 22:54 | 50.03284 | -10.92051 | 33158 ft | 467 kts | 112° |
| 2026-05-04 22:54 | 50.00307 | -10.83152 | 33152 ft | 466 kts | 112° |
| 2026-05-04 22:55 | 49.97311 | -10.74227 | 33148 ft | 465 kts | 112° |
| 2026-05-04 22:55 | 49.94308 | -10.65310 | 33147 ft | 465 kts | 111° |
| 2026-05-04 22:56 | 49.91308 | -10.56436 | 33146 ft | 463 kts | 111° |
| 2026-05-04 22:56 | 49.88306 | -10.47586 | 33138 ft | 463 kts | 111° |
| 2026-05-04 22:57 | 49.85303 | -10.38762 | 33137 ft | 462 kts | 111° |
| 2026-05-04 22:57 | 49.82301 | -10.29973 | 33133 ft | 461 kts | 111° |
| 2026-05-04 22:58 | 49.79319 | -10.21274 | 33131 ft | 460 kts | 111° |
| 2026-05-04 22:58 | 49.76314 | -10.12535 | 33131 ft | 459 kts | 111° |
| 2026-05-04 22:59 | 49.73311 | -10.03832 | 33129 ft | 458 kts | 111° |
| 2026-05-04 22:59 | 49.70305 | -9.95151 | 33122 ft | 457 kts | 111° |
| 2026-05-04 23:00 | 49.67303 | -9.86510 | 33117 ft | 456 kts | 111° |
| 2026-05-04 23:00 | 49.64313 | -9.77933 | 33117 ft | 456 kts | 111° |
| 2026-05-04 23:01 | 49.61302 | -9.69322 | 33120 ft | 456 kts | 112° |
| 2026-05-04 23:01 | 49.58270 | -9.60680 | 33117 ft | 458 kts | 112° |
| 2026-05-04 23:02 | 49.55251 | -9.52106 | 33101 ft | 458 kts | 112° |
| 2026-05-04 23:02 | 49.52204 | -9.43484 | 33099 ft | 458 kts | 112° |
| 2026-05-04 23:03 | 49.49151 | -9.34870 | 33101 ft | 459 kts | 113° |
| 2026-05-04 23:03 | 49.46083 | -9.26245 | 33103 ft | 459 kts | 113° |
| 2026-05-04 23:04 | 49.43000 | -9.17605 | 33100 ft | 460 kts | 114° |
| 2026-05-04 23:04 | 49.39933 | -9.09039 | 33096 ft | 460 kts | 114° |
| 2026-05-04 23:05 | 49.36842 | -9.00435 | 33093 ft | 460 kts | 114° |
| 2026-05-04 23:05 | 49.33743 | -8.91839 | 33093 ft | 461 kts | 115° |
| 2026-05-04 23:06 | 49.30633 | -8.83238 | 33083 ft | 461 kts | 115° |
| 2026-05-04 23:06 | 49.27520 | -8.74659 | 33086 ft | 461 kts | 115° |
| 2026-05-04 23:07 | 49.24396 | -8.66077 | 33085 ft | 461 kts | 115° |
| 2026-05-04 23:07 | 49.21267 | -8.57508 | 33078 ft | 462 kts | 116° |
| 2026-05-04 23:08 | 49.18125 | -8.48933 | 33076 ft | 462 kts | 116° |
| 2026-05-04 23:08 | 49.14995 | -8.40420 | 33074 ft | 462 kts | 116° |
| 2026-05-04 23:09 | 49.11841 | -8.31866 | 33072 ft | 462 kts | 116° |
| 2026-05-04 23:09 | 49.08679 | -8.23321 | 33063 ft | 463 kts | 117° |
| 2026-05-04 23:10 | 49.05506 | -8.14770 | 33069 ft | 463 kts | 117° |
| 2026-05-04 23:10 | 49.02334 | -8.06226 | 33054 ft | 461 kts | 115° |
| 2026-05-04 23:11 | 49.00308 | -7.97052 | 33064 ft | 457 kts | 97° |
| 2026-05-04 23:11 | 49.00030 | -7.87496 | 33066 ft | 455 kts | 86° |
| 2026-05-04 23:12 | 49.00226 | -7.77867 | 33056 ft | 455 kts | 87° |
| 2026-05-04 23:12 | 49.00354 | -7.68231 | 33056 ft | 455 kts | 88° |
| 2026-05-04 23:13 | 49.00445 | -7.58588 | 33056 ft | 455 kts | 88° |
| 2026-05-04 23:13 | 48.99918 | -7.48979 | 33066 ft | 457 kts | 99° |
| 2026-05-04 23:14 | 48.98198 | -7.39651 | 33054 ft | 459 kts | 108° |
| 2026-05-04 23:14 | 48.95993 | -7.30532 | 33047 ft | 459 kts | 109° |
| 2026-05-04 23:15 | 48.93772 | -7.21426 | 33048 ft | 458 kts | 109° |
| 2026-05-04 23:15 | 48.91588 | -7.12392 | 33050 ft | 458 kts | 109° |
| 2026-05-04 23:16 | 48.89395 | -7.03290 | 33046 ft | 458 kts | 109° |
| 2026-05-04 23:16 | 48.87200 | -6.94204 | 33048 ft | 458 kts | 109° |
| 2026-05-04 23:17 | 48.85003 | -6.85143 | 33045 ft | 457 kts | 109° |
| 2026-05-04 23:17 | 48.82797 | -6.76089 | 33043 ft | 457 kts | 109° |
| 2026-05-04 23:18 | 48.80600 | -6.67111 | 33044 ft | 457 kts | 109° |
| 2026-05-04 23:18 | 48.78379 | -6.58069 | 33041 ft | 457 kts | 109° |
| 2026-05-04 23:19 | 48.76155 | -6.49053 | 33037 ft | 457 kts | 109° |
| 2026-05-04 23:19 | 48.73923 | -6.40041 | 33036 ft | 457 kts | 110° |
| 2026-05-04 23:20 | 48.71683 | -6.31034 | 33037 ft | 457 kts | 110° |
| 2026-05-04 23:20 | 48.69439 | -6.22045 | 33034 ft | 456 kts | 110° |
| 2026-05-04 23:21 | 48.67185 | -6.13052 | 33035 ft | 456 kts | 110° |
| 2026-05-04 23:21 | 48.64943 | -6.04145 | 33034 ft | 456 kts | 110° |
| 2026-05-04 23:22 | 48.62679 | -5.95183 | 33031 ft | 456 kts | 110° |
| 2026-05-04 23:22 | 48.60408 | -5.86232 | 33030 ft | 456 kts | 110° |
| 2026-05-04 23:23 | 48.58130 | -5.77286 | 33030 ft | 456 kts | 110° |
| 2026-05-04 23:23 | 48.55842 | -5.68337 | 33030 ft | 456 kts | 110° |
| 2026-05-04 23:24 | 48.53935 | -5.60905 | 33031 ft | 456 kts | 110° |
| 2026-05-04 23:24 | 48.51636 | -5.51979 | 33026 ft | 457 kts | 110° |
| 2026-05-04 23:25 | 48.49327 | -5.43044 | 33024 ft | 457 kts | 111° |
| 2026-05-04 23:25 | 48.47011 | -5.34123 | 33024 ft | 457 kts | 111° |
| 2026-05-04 23:26 | 48.44688 | -5.25206 | 33023 ft | 457 kts | 111° |
| 2026-05-04 23:26 | 48.42369 | -5.16341 | 33018 ft | 457 kts | 111° |
| 2026-05-04 23:27 | 48.40029 | -5.07428 | 33017 ft | 457 kts | 111° |
| 2026-05-04 23:27 | 48.37683 | -4.98528 | 33021 ft | 458 kts | 111° |
| 2026-05-04 23:28 | 48.35328 | -4.89629 | 33015 ft | 458 kts | 111° |
| 2026-05-04 23:28 | 48.32964 | -4.80728 | 33018 ft | 458 kts | 111° |
| 2026-05-04 23:29 | 48.30596 | -4.71847 | 33019 ft | 458 kts | 111° |
| 2026-05-04 23:29 | 48.28234 | -4.63021 | 33018 ft | 458 kts | 112° |
| 2026-05-04 23:30 | 48.25849 | -4.54143 | 33020 ft | 458 kts | 112° |
| 2026-05-04 23:30 | 48.23454 | -4.45261 | 33024 ft | 458 kts | 112° |
| 2026-05-04 23:31 | 48.21052 | -4.36389 | 33021 ft | 458 kts | 112° |
| 2026-05-04 23:31 | 48.18649 | -4.27545 | 33017 ft | 458 kts | 112° |
| 2026-05-04 23:32 | 48.16240 | -4.18715 | 32999 ft | 458 kts | 112° |
| 2026-05-04 23:32 | 48.13842 | -4.09953 | 32998 ft | 457 kts | 113° |
| 2026-05-04 23:33 | 48.11421 | -4.01144 | 32995 ft | 457 kts | 113° |
| 2026-05-04 23:33 | 48.08996 | -3.92351 | 32993 ft | 457 kts | 113° |
| 2026-05-04 23:34 | 48.06568 | -3.83580 | 32994 ft | 456 kts | 113° |
| 2026-05-04 23:34 | 48.04133 | -3.74819 | 32994 ft | 456 kts | 114° |
| 2026-05-04 23:35 | 48.01696 | -3.66078 | 32994 ft | 456 kts | 114° |
| 2026-05-04 23:35 | 47.99251 | -3.57342 | 32994 ft | 455 kts | 114° |
| 2026-05-04 23:36 | 47.96803 | -3.48631 | 32991 ft | 455 kts | 114° |
| 2026-05-04 23:36 | 47.94354 | -3.39943 | 32993 ft | 454 kts | 114° |
| 2026-05-04 23:37 | 47.91911 | -3.31310 | 32992 ft | 454 kts | 114° |
| 2026-05-04 23:37 | 47.89455 | -3.22659 | 32983 ft | 453 kts | 115° |
| 2026-05-04 23:38 | 47.86993 | -3.14022 | 32986 ft | 452 kts | 115° |
| 2026-05-04 23:38 | 47.84528 | -3.05403 | 32974 ft | 452 kts | 115° |
| 2026-05-04 23:39 | 47.82055 | -2.96787 | 32972 ft | 452 kts | 115° |
| 2026-05-04 23:39 | 47.79582 | -2.88200 | 32971 ft | 452 kts | 115° |
| 2026-05-04 23:40 | 47.77100 | -2.79616 | 32964 ft | 451 kts | 115° |
| 2026-05-04 23:40 | 47.74632 | -2.71104 | 32966 ft | 450 kts | 115° |
| 2026-05-04 23:41 | 47.72147 | -2.62562 | 32968 ft | 450 kts | 115° |
| 2026-05-04 23:41 | 47.69652 | -2.54019 | 32977 ft | 450 kts | 116° |
| 2026-05-04 23:42 | 47.66698 | -2.45885 | 32960 ft | 446 kts | 126° |
| 2026-05-04 23:42 | 47.63229 | -2.38318 | 32960 ft | 446 kts | 126° |
| 2026-05-04 23:43 | 47.59745 | -2.30709 | 32953 ft | 446 kts | 126° |
| 2026-05-04 23:43 | 47.56274 | -2.23094 | 32949 ft | 445 kts | 126° |
| 2026-05-04 23:44 | 47.52810 | -2.15488 | 32965 ft | 445 kts | 126° |
| 2026-05-04 23:44 | 47.49350 | -2.07908 | 32961 ft | 445 kts | 126° |
| 2026-05-04 23:45 | 47.45879 | -2.00327 | 32961 ft | 445 kts | 126° |
| 2026-05-04 23:45 | 47.42401 | -1.92752 | 32960 ft | 445 kts | 126° |
| 2026-05-04 23:46 | 47.38919 | -1.85188 | 32957 ft | 445 kts | 126° |
| 2026-05-04 23:46 | 47.35436 | -1.77643 | 32942 ft | 445 kts | 126° |
| 2026-05-04 23:47 | 47.31972 | -1.70162 | 32943 ft | 445 kts | 127° |
| 2026-05-04 23:47 | 47.28480 | -1.62639 | 32943 ft | 444 kts | 127° |
| 2026-05-04 23:48 | 47.24990 | -1.55141 | 32938 ft | 444 kts | 127° |
| 2026-05-04 23:48 | 47.21490 | -1.47644 | 32940 ft | 444 kts | 127° |
| 2026-05-04 23:49 | 47.17985 | -1.40153 | 32933 ft | 444 kts | 127° |
| 2026-05-04 23:49 | 47.14474 | -1.32671 | 32941 ft | 444 kts | 127° |
| 2026-05-04 23:50 | 47.10984 | -1.25256 | 32940 ft | 444 kts | 127° |
| 2026-05-04 23:50 | 47.07466 | -1.17799 | 32943 ft | 444 kts | 127° |
| 2026-05-04 23:51 | 47.03947 | -1.10360 | 32951 ft | 444 kts | 127° |
| 2026-05-04 23:51 | 47.00415 | -1.02915 | 32949 ft | 444 kts | 127° |
| 2026-05-04 23:52 | 46.96882 | -0.95486 | 32944 ft | 444 kts | 128° |
| 2026-05-04 23:52 | 46.93348 | -0.88074 | 32943 ft | 444 kts | 128° |
| 2026-05-04 23:53 | 46.89829 | -0.80715 | 32942 ft | 443 kts | 128° |
| 2026-05-04 23:53 | 46.86290 | -0.73334 | 32937 ft | 443 kts | 128° |
| 2026-05-04 23:54 | 46.82745 | -0.65959 | 32938 ft | 443 kts | 128° |
| 2026-05-04 23:54 | 46.79205 | -0.58614 | 32939 ft | 442 kts | 128° |
| 2026-05-04 23:55 | 46.75661 | -0.51280 | 32941 ft | 442 kts | 128° |
| 2026-05-04 23:56 | 46.70368 | -0.40362 | 32935 ft | 441 kts | 128° |
| 2026-05-04 23:56 | 46.66826 | -0.33075 | 32937 ft | 441 kts | 129° |
| 2026-05-04 23:57 | 46.63274 | -0.25781 | 32932 ft | 441 kts | 128° |
| 2026-05-04 23:57 | 46.60086 | -0.18121 | 32934 ft | 443 kts | 124° |
| 2026-05-04 23:58 | 46.56997 | -0.10363 | 32937 ft | 443 kts | 124° |
| 2026-05-04 23:58 | 46.53901 | -0.02637 | 32931 ft | 442 kts | 124° |
| 2026-05-04 23:59 | 46.50819 | 0.05008 | 32927 ft | 441 kts | 124° |
| 2026-05-04 23:59 | 46.47704 | 0.12703 | 32946 ft | 442 kts | 124° |
| 2026-05-05 00:00 | 46.44586 | 0.20382 | 32936 ft | 441 kts | 124° |
| 2026-05-05 00:00 | 46.41467 | 0.28045 | 32928 ft | 441 kts | 124° |
| 2026-05-05 00:01 | 46.38346 | 0.35691 | 32933 ft | 440 kts | 124° |
| 2026-05-05 00:01 | 46.35225 | 0.43317 | 32931 ft | 441 kts | 125° |
| 2026-05-05 00:02 | 46.32112 | 0.50901 | 32929 ft | 440 kts | 125° |
| 2026-05-05 00:02 | 46.28979 | 0.58516 | 32924 ft | 440 kts | 125° |
| 2026-05-05 00:03 | 46.25840 | 0.66120 | 32924 ft | 440 kts | 125° |
| 2026-05-05 00:03 | 46.22693 | 0.73725 | 32923 ft | 440 kts | 125° |
| 2026-05-05 00:04 | 46.19545 | 0.81312 | 32921 ft | 440 kts | 125° |
| 2026-05-05 00:04 | 46.16396 | 0.88881 | 32928 ft | 440 kts | 125° |
| 2026-05-05 00:05 | 46.13243 | 0.96438 | 32921 ft | 439 kts | 125° |
| 2026-05-05 00:05 | 46.10107 | 1.03935 | 32917 ft | 439 kts | 125° |
| 2026-05-05 00:06 | 46.06954 | 1.11453 | 32916 ft | 438 kts | 126° |
| 2026-05-05 00:06 | 46.03791 | 1.18974 | 32914 ft | 438 kts | 126° |
| 2026-05-05 00:07 | 46.00627 | 1.26477 | 32911 ft | 438 kts | 126° |
| 2026-05-05 00:07 | 45.97483 | 1.33915 | 32912 ft | 437 kts | 126° |
| 2026-05-05 00:08 | 45.94662 | 1.41715 | 32914 ft | 443 kts | 117° |
| 2026-05-05 00:08 | 45.92736 | 1.50204 | 32918 ft | 448 kts | 111° |
| 2026-05-05 00:09 | 45.90991 | 1.58811 | 32916 ft | 449 kts | 111° |
| 2026-05-05 00:09 | 45.89242 | 1.67348 | 32912 ft | 448 kts | 111° |
| 2026-05-05 00:10 | 45.87460 | 1.75931 | 32925 ft | 449 kts | 112° |
| 2026-05-05 00:10 | 45.85659 | 1.84529 | 32918 ft | 450 kts | 112° |
| 2026-05-05 00:11 | 45.83850 | 1.93126 | 32917 ft | 450 kts | 112° |
| 2026-05-05 00:11 | 45.82036 | 2.01714 | 32925 ft | 450 kts | 112° |
| 2026-05-05 00:12 | 45.80532 | 2.08810 | 32927 ft | 451 kts | 112° |
| 2026-05-05 00:12 | 45.78699 | 2.17420 | 32926 ft | 451 kts | 112° |
| 2026-05-05 00:13 | 45.76858 | 2.26033 | 32930 ft | 452 kts | 112° |
| 2026-05-05 00:13 | 45.75014 | 2.34629 | 32940 ft | 451 kts | 112° |
| 2026-05-05 00:14 | 45.73163 | 2.43220 | 32935 ft | 452 kts | 112° |
| 2026-05-05 00:14 | 45.71301 | 2.51824 | 32934 ft | 452 kts | 112° |
| 2026-05-05 00:15 | 45.69449 | 2.60350 | 32909 ft | 451 kts | 112° |
| 2026-05-05 00:15 | 45.67580 | 2.68915 | 32931 ft | 451 kts | 112° |
| 2026-05-05 00:16 | 45.65706 | 2.77469 | 32924 ft | 451 kts | 112° |
| 2026-05-05 00:16 | 45.63824 | 2.86026 | 32914 ft | 450 kts | 112° |
| 2026-05-05 00:17 | 45.61935 | 2.94584 | 32928 ft | 451 kts | 112° |
| 2026-05-05 00:17 | 45.60041 | 3.03124 | 32913 ft | 451 kts | 112° |
| 2026-05-05 00:18 | 45.58140 | 3.11663 | 32927 ft | 451 kts | 112° |
| 2026-05-05 00:18 | 45.56232 | 3.20201 | 32913 ft | 451 kts | 112° |
| 2026-05-05 00:19 | 45.54329 | 3.28678 | 32919 ft | 451 kts | 112° |
| 2026-05-05 00:19 | 45.52410 | 3.37197 | 32921 ft | 451 kts | 113° |
| 2026-05-05 00:20 | 45.50485 | 3.45702 | 32932 ft | 451 kts | 113° |
| 2026-05-05 00:20 | 45.48554 | 3.54204 | 32930 ft | 450 kts | 113° |
| 2026-05-05 00:21 | 45.46618 | 3.62695 | 32933 ft | 450 kts | 113° |
| 2026-05-05 00:21 | 45.44677 | 3.71175 | 32935 ft | 451 kts | 113° |
| 2026-05-05 00:22 | 45.42726 | 3.79668 | 32936 ft | 451 kts | 113° |
| 2026-05-05 00:22 | 45.40783 | 3.88088 | 32940 ft | 451 kts | 113° |
| 2026-05-05 00:23 | 45.38822 | 3.96555 | 32933 ft | 451 kts | 113° |
| 2026-05-05 00:23 | 45.36854 | 4.05020 | 32937 ft | 451 kts | 113° |
| 2026-05-05 00:24 | 45.34877 | 4.13490 | 32952 ft | 451 kts | 113° |
| 2026-05-05 00:24 | 45.32895 | 4.21952 | 32924 ft | 451 kts | 114° |
| 2026-05-05 00:25 | 45.30907 | 4.30407 | 32943 ft | 451 kts | 114° |
| 2026-05-05 00:25 | 45.28913 | 4.38852 | 32936 ft | 451 kts | 114° |
| 2026-05-05 00:26 | 45.26925 | 4.47238 | 32941 ft | 451 kts | 114° |
| 2026-05-05 00:26 | 45.24919 | 4.55673 | 32934 ft | 450 kts | 114° |
| 2026-05-05 00:27 | 45.22909 | 4.64090 | 32936 ft | 450 kts | 114° |
| 2026-05-05 00:27 | 45.20896 | 4.72489 | 32947 ft | 450 kts | 114° |
| 2026-05-05 00:28 | 45.18873 | 4.80895 | 32940 ft | 451 kts | 114° |
| 2026-05-05 00:28 | 45.16852 | 4.89260 | 32940 ft | 452 kts | 114° |
| 2026-05-05 00:29 | 45.14806 | 4.97708 | 32941 ft | 453 kts | 114° |
| 2026-05-05 00:29 | 45.12749 | 5.06172 | 32940 ft | 455 kts | 114° |
| 2026-05-05 00:30 | 45.10810 | 5.14716 | 32943 ft | 459 kts | 108° |
| 2026-05-05 00:30 | 45.09881 | 5.23741 | 32945 ft | 468 kts | 98° |
| 2026-05-05 00:31 | 45.09563 | 5.32964 | 32939 ft | 470 kts | 98° |
| 2026-05-05 00:31 | 45.09240 | 5.42167 | 32954 ft | 471 kts | 98° |
| 2026-05-05 00:32 | 45.08874 | 5.51447 | 32950 ft | 471 kts | 99° |
| 2026-05-05 00:32 | 45.08489 | 5.60712 | 32953 ft | 472 kts | 99° |
| 2026-05-05 00:33 | 45.08096 | 5.69996 | 32950 ft | 473 kts | 99° |
| 2026-05-05 00:33 | 45.07700 | 5.79290 | 32955 ft | 473 kts | 99° |
| 2026-05-05 00:34 | 45.07200 | 5.88579 | 32955 ft | 473 kts | 101° |
| 2026-05-05 00:34 | 45.06545 | 5.97800 | 32961 ft | 474 kts | 101° |
| 2026-05-05 00:35 | 45.05906 | 6.06945 | 32977 ft | 474 kts | 101° |
| 2026-05-05 00:35 | 45.05271 | 6.16245 | 32978 ft | 475 kts | 101° |
| 2026-05-05 00:36 | 45.04625 | 6.25559 | 32976 ft | 476 kts | 102° |
| 2026-05-05 00:36 | 45.03240 | 6.34608 | 32973 ft | 467 kts | 114° |
| 2026-05-05 00:37 | 45.00941 | 6.42847 | 33002 ft | 464 kts | 118° |
| 2026-05-05 00:37 | 44.98498 | 6.51226 | 33020 ft | 465 kts | 118° |
| 2026-05-05 00:38 | 44.96052 | 6.59690 | 33015 ft | 465 kts | 117° |
| 2026-05-05 00:38 | 44.93621 | 6.68147 | 33019 ft | 463 kts | 117° |
| 2026-05-05 00:39 | 44.91188 | 6.76592 | 33031 ft | 466 kts | 118° |
| 2026-05-05 00:39 | 44.88738 | 6.85068 | 33022 ft | 467 kts | 118° |
| 2026-05-05 00:40 | 44.86271 | 6.93577 | 33053 ft | 469 kts | 118° |
| 2026-05-05 00:40 | 44.83809 | 7.02047 | 33059 ft | 465 kts | 118° |
| 2026-05-05 00:41 | 44.81354 | 7.10443 | 33066 ft | 468 kts | 118° |
| 2026-05-05 00:41 | 44.78861 | 7.18944 | 33053 ft | 469 kts | 118° |
| 2026-05-05 00:42 | 44.76360 | 7.27454 | 33054 ft | 470 kts | 118° |
| 2026-05-05 00:42 | 44.73857 | 7.35942 | 33045 ft | 469 kts | 118° |
| 2026-05-05 00:43 | 44.71348 | 7.44417 | 33051 ft | 469 kts | 118° |
| 2026-05-05 00:43 | 44.68844 | 7.52845 | 33048 ft | 470 kts | 118° |
| 2026-05-05 00:44 | 44.66317 | 7.61325 | 33048 ft | 470 kts | 118° |
| 2026-05-05 00:44 | 44.63784 | 7.69795 | 33046 ft | 470 kts | 118° |
| 2026-05-05 00:45 | 44.61240 | 7.78275 | 33047 ft | 470 kts | 118° |
| 2026-05-05 00:45 | 44.58694 | 7.86733 | 33039 ft | 470 kts | 118° |
| 2026-05-05 00:46 | 44.56144 | 7.95177 | 33043 ft | 470 kts | 118° |
| 2026-05-05 00:46 | 44.53583 | 8.03625 | 33043 ft | 471 kts | 118° |
| 2026-05-05 00:47 | 44.51034 | 8.12013 | 33035 ft | 471 kts | 118° |
| 2026-05-05 00:47 | 44.48457 | 8.20461 | 33036 ft | 471 kts | 118° |
| 2026-05-05 00:48 | 44.45866 | 8.28924 | 33021 ft | 473 kts | 118° |
| 2026-05-05 00:48 | 44.43263 | 8.37400 | 33017 ft | 473 kts | 118° |
| 2026-05-05 00:49 | 44.40660 | 8.45854 | 33023 ft | 473 kts | 118° |
| 2026-05-05 00:49 | 44.38057 | 8.54272 | 33004 ft | 475 kts | 118° |
| 2026-05-05 00:50 | 44.35431 | 8.62746 | 33002 ft | 475 kts | 118° |
| 2026-05-05 00:50 | 44.32799 | 8.71206 | 33023 ft | 475 kts | 118° |
| 2026-05-05 00:51 | 44.30155 | 8.79675 | 33018 ft | 476 kts | 118° |
| 2026-05-05 00:51 | 44.27503 | 8.88146 | 33018 ft | 476 kts | 118° |
| 2026-05-05 00:52 | 44.24841 | 8.96619 | 33013 ft | 477 kts | 118° |
| 2026-05-05 00:52 | 44.22171 | 9.05091 | 33006 ft | 477 kts | 118° |
| 2026-05-05 00:53 | 44.19490 | 9.13573 | 33004 ft | 477 kts | 118° |
| 2026-05-05 00:53 | 44.16805 | 9.22040 | 33004 ft | 479 kts | 118° |
| 2026-05-05 00:54 | 44.14123 | 9.30471 | 33004 ft | 480 kts | 118° |
| 2026-05-05 00:54 | 44.11497 | 9.39035 | 33006 ft | 482 kts | 117° |
| 2026-05-05 00:55 | 44.08934 | 9.47672 | 33005 ft | 484 kts | 117° |
| 2026-05-05 00:55 | 44.06354 | 9.56320 | 33017 ft | 484 kts | 117° |
| 2026-05-05 00:56 | 44.03746 | 9.64974 | 33024 ft | 485 kts | 117° |
| 2026-05-05 00:56 | 44.01137 | 9.73582 | 33033 ft | 487 kts | 117° |
| 2026-05-05 00:57 | 43.98504 | 9.82240 | 33037 ft | 487 kts | 117° |
| 2026-05-05 00:57 | 43.95859 | 9.90911 | 33045 ft | 487 kts | 117° |
| 2026-05-05 00:58 | 43.93206 | 9.99579 | 33044 ft | 488 kts | 117° |
| 2026-05-05 00:58 | 43.90545 | 10.08244 | 33036 ft | 489 kts | 117° |
| 2026-05-05 00:59 | 43.87876 | 10.16908 | 33035 ft | 488 kts | 117° |
| 2026-05-05 00:59 | 43.85202 | 10.25560 | 33045 ft | 488 kts | 117° |
| 2026-05-05 01:00 | 43.82517 | 10.34216 | 33046 ft | 489 kts | 117° |
| 2026-05-05 01:00 | 43.80285 | 10.41394 | 33041 ft | 488 kts | 117° |
| 2026-05-05 01:01 | 43.77155 | 10.51428 | 33025 ft | 489 kts | 118° |
| 2026-05-05 01:01 | 43.74116 | 10.59788 | 33060 ft | 485 kts | 124° |
| 2026-05-05 01:02 | 43.71319 | 10.66613 | 33051 ft | 487 kts | 124° |
| 2026-05-05 01:02 | 43.67990 | 10.74703 | 33050 ft | 487 kts | 124° |
| 2026-05-05 01:03 | 43.64647 | 10.82878 | 33056 ft | 488 kts | 124° |
| 2026-05-05 01:03 | 43.61306 | 10.91070 | 33058 ft | 490 kts | 124° |
| 2026-05-05 01:04 | 43.57983 | 10.99204 | 33057 ft | 490 kts | 124° |
| 2026-05-05 01:04 | 43.52934 | 11.11517 | 33065 ft | 492 kts | 125° |
| 2026-05-05 01:05 | 43.49553 | 11.19727 | 33073 ft | 493 kts | 125° |
| 2026-05-05 01:05 | 43.46163 | 11.27939 | 33073 ft | 493 kts | 125° |
| 2026-05-05 01:06 | 43.42763 | 11.36148 | 33061 ft | 494 kts | 125° |
| 2026-05-05 01:06 | 43.39348 | 11.44370 | 33077 ft | 495 kts | 125° |
| 2026-05-05 01:07 | 43.35920 | 11.52601 | 33075 ft | 497 kts | 125° |
| 2026-05-05 01:07 | 43.32501 | 11.60789 | 33088 ft | 498 kts | 125° |
| 2026-05-05 01:08 | 43.29043 | 11.69045 | 33080 ft | 498 kts | 125° |
| 2026-05-05 01:08 | 43.25582 | 11.77285 | 33075 ft | 498 kts | 125° |
| 2026-05-05 01:09 | 43.22107 | 11.85533 | 33081 ft | 500 kts | 124° |
| 2026-05-05 01:09 | 43.18620 | 11.93788 | 33089 ft | 501 kts | 124° |
| 2026-05-05 01:10 | 43.15112 | 12.02068 | 33085 ft | 503 kts | 124° |
| 2026-05-05 01:10 | 43.11613 | 12.10304 | 33090 ft | 504 kts | 124° |
| 2026-05-05 01:11 | 43.08077 | 12.18605 | 33096 ft | 504 kts | 124° |
| 2026-05-05 01:11 | 43.04536 | 12.26893 | 33095 ft | 505 kts | 124° |
| 2026-05-05 01:12 | 43.00984 | 12.35182 | 33100 ft | 506 kts | 124° |
| 2026-05-05 01:12 | 42.97420 | 12.43478 | 33105 ft | 506 kts | 124° |
| 2026-05-05 01:13 | 42.93844 | 12.51775 | 33113 ft | 506 kts | 124° |
| 2026-05-05 01:13 | 42.90271 | 12.60047 | 33118 ft | 506 kts | 124° |
| 2026-05-05 01:14 | 42.86688 | 12.68314 | 33110 ft | 506 kts | 124° |
| 2026-05-05 01:14 | 42.83097 | 12.76577 | 33108 ft | 506 kts | 124° |
| 2026-05-05 01:15 | 42.79521 | 12.84781 | 33106 ft | 506 kts | 124° |
| 2026-05-05 01:15 | 42.75922 | 12.93016 | 33100 ft | 506 kts | 124° |
| 2026-05-05 01:16 | 42.72310 | 13.01257 | 33107 ft | 505 kts | 124° |
| 2026-05-05 01:16 | 42.68705 | 13.09459 | 33110 ft | 505 kts | 124° |
| 2026-05-05 01:17 | 42.65088 | 13.17667 | 33114 ft | 507 kts | 124° |
| 2026-05-05 01:17 | 42.61456 | 13.25888 | 33107 ft | 508 kts | 124° |
| 2026-05-05 01:18 | 42.57838 | 13.34050 | 33106 ft | 508 kts | 124° |
| 2026-05-05 01:18 | 42.54196 | 13.42245 | 33095 ft | 507 kts | 124° |
| 2026-05-05 01:19 | 42.50546 | 13.50438 | 33094 ft | 508 kts | 124° |
| 2026-05-05 01:19 | 42.46876 | 13.58650 | 33062 ft | 509 kts | 124° |
| 2026-05-05 01:20 | 42.43199 | 13.66855 | 33083 ft | 510 kts | 124° |
| 2026-05-05 01:20 | 42.39519 | 13.75047 | 33071 ft | 508 kts | 124° |
| 2026-05-05 01:21 | 42.35868 | 13.83151 | 33077 ft | 508 kts | 124° |
| 2026-05-05 01:21 | 42.32177 | 13.91318 | 33080 ft | 510 kts | 124° |
| 2026-05-05 01:22 | 42.28474 | 13.99492 | 33071 ft | 510 kts | 124° |
| 2026-05-05 01:22 | 42.24762 | 14.07662 | 33071 ft | 509 kts | 124° |
| 2026-05-05 01:23 | 42.21048 | 14.15814 | 33071 ft | 510 kts | 124° |
| 2026-05-05 01:23 | 42.17326 | 14.23965 | 33065 ft | 510 kts | 124° |
| 2026-05-05 01:24 | 42.13623 | 14.32050 | 33059 ft | 510 kts | 124° |
| 2026-05-05 01:24 | 42.09890 | 14.40178 | 33064 ft | 510 kts | 123° |
| 2026-05-05 01:25 | 42.06153 | 14.48292 | 33063 ft | 510 kts | 123° |
| 2026-05-05 01:25 | 42.02405 | 14.56409 | 33064 ft | 509 kts | 123° |
| 2026-05-05 01:26 | 41.98679 | 14.64457 | 33071 ft | 510 kts | 123° |
| 2026-05-05 01:26 | 41.94922 | 14.72550 | 33061 ft | 510 kts | 123° |
| 2026-05-05 01:27 | 41.91159 | 14.80632 | 33063 ft | 510 kts | 123° |
| 2026-05-05 01:27 | 41.87384 | 14.88720 | 33058 ft | 510 kts | 123° |
| 2026-05-05 01:28 | 41.83613 | 14.96778 | 33068 ft | 510 kts | 123° |
| 2026-05-05 01:28 | 41.79825 | 15.04850 | 33063 ft | 511 kts | 123° |
| 2026-05-05 01:29 | 41.76036 | 15.12903 | 33078 ft | 511 kts | 123° |
| 2026-05-05 01:29 | 41.72266 | 15.20895 | 33069 ft | 510 kts | 123° |
| 2026-05-05 01:30 | 41.68468 | 15.28924 | 33071 ft | 511 kts | 123° |
| 2026-05-05 01:30 | 41.64658 | 15.36958 | 33080 ft | 511 kts | 123° |
| 2026-05-05 01:31 | 41.60846 | 15.44974 | 33097 ft | 511 kts | 123° |
| 2026-05-05 01:31 | 41.57032 | 15.52973 | 33098 ft | 511 kts | 123° |
| 2026-05-05 01:32 | 41.53208 | 15.60972 | 33104 ft | 511 kts | 123° |
| 2026-05-05 01:32 | 41.49383 | 15.68952 | 33101 ft | 511 kts | 123° |
| 2026-05-05 01:33 | 41.45564 | 15.76898 | 33098 ft | 511 kts | 123° |
| 2026-05-05 01:33 | 41.41721 | 15.84876 | 33095 ft | 511 kts | 123° |
| 2026-05-05 01:34 | 41.37867 | 15.92852 | 33089 ft | 512 kts | 123° |
| 2026-05-05 01:34 | 41.34000 | 16.00838 | 33091 ft | 513 kts | 123° |
| 2026-05-05 01:35 | 41.30124 | 16.08819 | 33082 ft | 513 kts | 123° |
| 2026-05-05 01:35 | 41.26246 | 16.16783 | 33091 ft | 513 kts | 123° |
| 2026-05-05 01:36 | 41.22357 | 16.24750 | 33088 ft | 514 kts | 123° |
| 2026-05-05 01:36 | 41.18487 | 16.32658 | 33082 ft | 514 kts | 123° |
| 2026-05-05 01:37 | 41.14583 | 16.40616 | 33087 ft | 514 kts | 123° |
| 2026-05-05 01:37 | 41.10670 | 16.48568 | 33092 ft | 514 kts | 123° |
| 2026-05-05 01:38 | 41.06752 | 16.56512 | 33091 ft | 515 kts | 123° |
| 2026-05-05 01:38 | 41.02826 | 16.64450 | 33094 ft | 515 kts | 123° |
| 2026-05-05 01:39 | 40.98917 | 16.72337 | 33081 ft | 516 kts | 123° |
| 2026-05-05 01:39 | 40.94973 | 16.80271 | 33082 ft | 516 kts | 123° |
| 2026-05-05 01:40 | 40.91023 | 16.88198 | 33100 ft | 516 kts | 123° |
| 2026-05-05 01:40 | 40.87071 | 16.96107 | 33101 ft | 516 kts | 123° |
| 2026-05-05 01:41 | 40.83111 | 17.04012 | 33105 ft | 516 kts | 123° |
| 2026-05-05 01:41 | 40.79145 | 17.11910 | 33100 ft | 516 kts | 123° |
| 2026-05-05 01:42 | 40.75173 | 17.19800 | 33106 ft | 516 kts | 123° |
| 2026-05-05 01:42 | 40.71191 | 17.27689 | 33100 ft | 516 kts | 123° |
| 2026-05-05 01:43 | 40.67202 | 17.35572 | 33099 ft | 517 kts | 123° |
| 2026-05-05 01:43 | 40.63206 | 17.43448 | 33100 ft | 517 kts | 123° |
| 2026-05-05 01:44 | 40.59230 | 17.51267 | 33097 ft | 517 kts | 123° |
| 2026-05-05 01:44 | 40.55224 | 17.59123 | 33105 ft | 517 kts | 123° |
| 2026-05-05 01:45 | 40.51203 | 17.66990 | 33104 ft | 518 kts | 123° |
| 2026-05-05 01:45 | 40.47173 | 17.74854 | 33101 ft | 518 kts | 123° |
| 2026-05-05 01:46 | 40.43142 | 17.82701 | 33102 ft | 518 kts | 123° |
| 2026-05-05 01:46 | 40.39105 | 17.90539 | 33107 ft | 519 kts | 123° |
| 2026-05-05 01:47 | 40.35053 | 17.98386 | 33106 ft | 519 kts | 123° |
| 2026-05-05 01:47 | 40.31675 | 18.04913 | 33106 ft | 520 kts | 123° |
| 2026-05-05 01:48 | 40.26946 | 18.14027 | 33106 ft | 520 kts | 123° |
| 2026-05-05 01:48 | 40.23536 | 18.20584 | 33108 ft | 520 kts | 123° |
| 2026-05-05 01:49 | 40.19458 | 18.28406 | 33100 ft | 520 kts | 123° |
| 2026-05-05 01:49 | 40.15401 | 18.36170 | 33107 ft | 520 kts | 123° |
| 2026-05-05 01:50 | 40.11311 | 18.43977 | 33107 ft | 520 kts | 123° |
| 2026-05-05 01:50 | 40.07213 | 18.51778 | 33114 ft | 520 kts | 123° |
| 2026-05-05 01:51 | 40.03112 | 18.59569 | 33113 ft | 520 kts | 123° |
| 2026-05-05 01:51 | 39.99037 | 18.67289 | 33116 ft | 520 kts | 123° |
| 2026-05-05 01:52 | 39.94929 | 18.75054 | 33119 ft | 520 kts | 123° |
| 2026-05-05 01:52 | 39.90818 | 18.82805 | 33118 ft | 520 kts | 123° |
| 2026-05-05 01:53 | 39.86692 | 18.90567 | 33119 ft | 520 kts | 123° |
| 2026-05-05 01:53 | 39.82568 | 18.98310 | 33119 ft | 520 kts | 123° |
| 2026-05-05 01:54 | 39.78387 | 19.05987 | 33119 ft | 520 kts | 124° |
| 2026-05-05 01:54 | 39.74116 | 19.13576 | 33124 ft | 519 kts | 124° |
| 2026-05-05 01:55 | 39.69846 | 19.21144 | 33123 ft | 519 kts | 124° |
| 2026-05-05 01:55 | 39.65604 | 19.28686 | 33122 ft | 520 kts | 124° |
| 2026-05-05 01:56 | 39.61336 | 19.36274 | 33122 ft | 520 kts | 124° |
| 2026-05-05 01:56 | 39.57070 | 19.43841 | 33119 ft | 519 kts | 124° |
| 2026-05-05 01:57 | 39.52800 | 19.51394 | 33124 ft | 520 kts | 124° |
| 2026-05-05 01:57 | 39.48519 | 19.58949 | 33125 ft | 520 kts | 124° |
| 2026-05-05 01:58 | 39.44236 | 19.66487 | 33123 ft | 519 kts | 124° |
| 2026-05-05 01:58 | 39.39951 | 19.74012 | 33126 ft | 519 kts | 124° |
| 2026-05-05 01:59 | 39.35685 | 19.81486 | 33124 ft | 520 kts | 124° |
| 2026-05-05 01:59 | 39.31385 | 19.89003 | 33129 ft | 520 kts | 124° |
| 2026-05-05 02:00 | 39.27079 | 19.96512 | 33127 ft | 520 kts | 124° |
| 2026-05-05 02:00 | 39.22767 | 20.04014 | 33131 ft | 520 kts | 124° |
| 2026-05-05 02:01 | 39.18452 | 20.11505 | 33147 ft | 520 kts | 124° |
| 2026-05-05 02:01 | 39.14128 | 20.18996 | 33126 ft | 520 kts | 124° |
| 2026-05-05 02:02 | 39.09811 | 20.26477 | 33140 ft | 520 kts | 124° |
| 2026-05-05 02:02 | 39.05520 | 20.33979 | 33141 ft | 521 kts | 124° |
| 2026-05-05 02:03 | 39.01228 | 20.41476 | 33145 ft | 520 kts | 124° |
| 2026-05-05 02:03 | 38.96924 | 20.48961 | 33151 ft | 520 kts | 124° |
| 2026-05-05 02:04 | 38.92619 | 20.56430 | 33158 ft | 520 kts | 124° |
| 2026-05-05 02:04 | 38.88304 | 20.63901 | 33158 ft | 521 kts | 124° |
| 2026-05-05 02:05 | 38.83986 | 20.71299 | 33158 ft | 521 kts | 125° |
| 2026-05-05 02:05 | 38.79599 | 20.78710 | 33162 ft | 521 kts | 125° |
| 2026-05-05 02:06 | 38.75214 | 20.86100 | 33153 ft | 521 kts | 125° |
| 2026-05-05 02:06 | 38.70828 | 20.93493 | 33155 ft | 521 kts | 125° |
| 2026-05-05 02:07 | 38.66433 | 21.00890 | 33162 ft | 521 kts | 125° |
| 2026-05-05 02:07 | 38.62068 | 21.08221 | 33153 ft | 522 kts | 125° |
| 2026-05-05 02:08 | 38.57667 | 21.15596 | 33154 ft | 521 kts | 125° |
| 2026-05-05 02:08 | 38.53267 | 21.22951 | 33138 ft | 520 kts | 125° |
| 2026-05-05 02:09 | 38.48867 | 21.30287 | 33160 ft | 520 kts | 125° |
| 2026-05-05 02:09 | 38.44458 | 21.37625 | 33158 ft | 521 kts | 125° |
| 2026-05-05 02:10 | 38.40048 | 21.44947 | 33153 ft | 520 kts | 125° |
| 2026-05-05 02:10 | 38.35662 | 21.52212 | 33155 ft | 520 kts | 125° |
| 2026-05-05 02:11 | 38.31251 | 21.59503 | 33159 ft | 519 kts | 125° |
| 2026-05-05 02:11 | 38.26835 | 21.66786 | 33160 ft | 519 kts | 125° |
| 2026-05-05 02:12 | 38.20195 | 21.77705 | 33163 ft | 519 kts | 125° |
| 2026-05-05 02:13 | 38.15772 | 21.84959 | 33160 ft | 519 kts | 125° |
| 2026-05-05 02:13 | 38.11347 | 21.92200 | 33166 ft | 519 kts | 126° |
| 2026-05-05 02:14 | 38.06911 | 21.99442 | 33172 ft | 520 kts | 126° |
| 2026-05-05 02:14 | 38.02470 | 22.06679 | 33172 ft | 519 kts | 126° |
| 2026-05-05 02:15 | 37.98056 | 22.13854 | 33170 ft | 519 kts | 126° |
| 2026-05-05 02:15 | 37.93583 | 22.21109 | 33170 ft | 519 kts | 126° |
| 2026-05-05 02:16 | 37.89163 | 22.28263 | 33167 ft | 519 kts | 126° |
| 2026-05-05 02:16 | 37.84703 | 22.35465 | 33180 ft | 519 kts | 126° |
| 2026-05-05 02:17 | 37.80244 | 22.42653 | 33167 ft | 519 kts | 126° |
| 2026-05-05 02:17 | 37.75789 | 22.49820 | 33169 ft | 519 kts | 126° |
| 2026-05-05 02:18 | 37.71355 | 22.57024 | 33170 ft | 518 kts | 123° |
| 2026-05-05 02:18 | 37.67683 | 22.64800 | 33159 ft | 514 kts | 114° |
| 2026-05-05 02:19 | 37.64397 | 22.72757 | 33134 ft | 513 kts | 114° |
| 2026-05-05 02:19 | 37.61075 | 22.80733 | 33136 ft | 514 kts | 115° |
| 2026-05-05 02:20 | 37.57718 | 22.88686 | 33134 ft | 514 kts | 115° |
| 2026-05-05 02:20 | 37.54342 | 22.96630 | 33122 ft | 513 kts | 115° |
| 2026-05-05 02:21 | 37.50968 | 23.04543 | 33113 ft | 512 kts | 115° |
| 2026-05-05 02:21 | 37.47590 | 23.12454 | 33110 ft | 513 kts | 115° |
| 2026-05-05 02:22 | 37.44209 | 23.20358 | 33126 ft | 512 kts | 115° |
| 2026-05-05 02:22 | 37.40845 | 23.28200 | 33113 ft | 512 kts | 115° |
| 2026-05-05 02:23 | 37.37460 | 23.36075 | 33105 ft | 512 kts | 115° |
| 2026-05-05 02:23 | 37.34064 | 23.43955 | 33107 ft | 511 kts | 115° |
| 2026-05-05 02:24 | 37.30668 | 23.51814 | 33114 ft | 511 kts | 115° |
| 2026-05-05 02:24 | 37.27269 | 23.59664 | 33100 ft | 512 kts | 116° |
| 2026-05-05 02:25 | 37.23859 | 23.67518 | 33102 ft | 512 kts | 116° |
| 2026-05-05 02:25 | 37.20450 | 23.75349 | 33100 ft | 511 kts | 116° |
| 2026-05-05 02:26 | 37.17060 | 23.83118 | 33100 ft | 510 kts | 116° |
| 2026-05-05 02:26 | 37.13647 | 23.90924 | 33103 ft | 510 kts | 116° |
| 2026-05-05 02:27 | 37.10235 | 23.98708 | 33097 ft | 509 kts | 116° |
| 2026-05-05 02:27 | 37.06819 | 24.06482 | 33102 ft | 509 kts | 116° |
| 2026-05-05 02:28 | 37.03396 | 24.14253 | 33107 ft | 509 kts | 116° |
| 2026-05-05 02:28 | 37.00001 | 24.21944 | 33110 ft | 508 kts | 116° |
| 2026-05-05 02:29 | 36.96576 | 24.29682 | 33090 ft | 508 kts | 116° |
| 2026-05-05 02:29 | 36.93146 | 24.37415 | 33095 ft | 509 kts | 116° |
| 2026-05-05 02:30 | 36.89705 | 24.45154 | 33095 ft | 508 kts | 116° |
| 2026-05-05 02:30 | 36.86263 | 24.52878 | 33101 ft | 508 kts | 117° |
| 2026-05-05 02:31 | 36.82815 | 24.60596 | 33100 ft | 508 kts | 117° |
| 2026-05-05 02:31 | 36.79388 | 24.68248 | 33096 ft | 508 kts | 117° |
| 2026-05-05 02:32 | 36.75935 | 24.75941 | 33100 ft | 508 kts | 117° |
| 2026-05-05 02:32 | 36.72479 | 24.83623 | 33095 ft | 507 kts | 117° |
| 2026-05-05 02:33 | 36.69024 | 24.91286 | 33096 ft | 507 kts | 117° |
| 2026-05-05 02:33 | 36.65560 | 24.98951 | 33101 ft | 507 kts | 117° |
| 2026-05-05 02:34 | 36.62685 | 25.05298 | 33093 ft | 506 kts | 117° |
| 2026-05-05 02:34 | 36.59221 | 25.12930 | 33094 ft | 505 kts | 117° |
| 2026-05-05 02:35 | 36.55197 | 25.21773 | 33090 ft | 504 kts | 117° |
| 2026-05-05 02:35 | 36.52303 | 25.28120 | 33086 ft | 504 kts | 117° |
| 2026-05-05 02:36 | 36.48862 | 25.35648 | 33081 ft | 503 kts | 117° |
| 2026-05-05 02:36 | 36.45400 | 25.43206 | 33076 ft | 503 kts | 118° |
| 2026-05-05 02:37 | 36.41943 | 25.50738 | 33077 ft | 502 kts | 118° |
| 2026-05-05 02:37 | 36.38483 | 25.58257 | 33079 ft | 501 kts | 118° |
| 2026-05-05 02:38 | 36.35019 | 25.65771 | 33076 ft | 501 kts | 118° |
| 2026-05-05 02:38 | 36.31557 | 25.73262 | 33080 ft | 500 kts | 118° |
| 2026-05-05 02:39 | 36.28099 | 25.80729 | 33086 ft | 499 kts | 118° |
| 2026-05-05 02:39 | 36.24660 | 25.88140 | 33097 ft | 498 kts | 118° |
| 2026-05-05 02:40 | 36.21535 | 25.95800 | 33093 ft | 497 kts | 113° |
| 2026-05-05 02:40 | 36.18634 | 26.03569 | 33086 ft | 497 kts | 112° |
| 2026-05-05 02:41 | 36.15725 | 26.11324 | 33082 ft | 496 kts | 113° |
| 2026-05-05 02:41 | 36.12799 | 26.19034 | 33081 ft | 494 kts | 113° |
| 2026-05-05 02:42 | 36.09867 | 26.26717 | 33079 ft | 494 kts | 113° |
| 2026-05-05 02:42 | 36.06930 | 26.34394 | 33077 ft | 493 kts | 113° |
| 2026-05-05 02:43 | 36.03999 | 26.42045 | 33076 ft | 492 kts | 113° |
| 2026-05-05 02:43 | 36.01082 | 26.49639 | 33069 ft | 492 kts | 113° |
| 2026-05-05 02:44 | 35.98142 | 26.57278 | 33073 ft | 492 kts | 113° |
| 2026-05-05 02:44 | 35.95196 | 26.64912 | 33069 ft | 492 kts | 114° |
| 2026-05-05 02:45 | 35.92249 | 26.72535 | 33065 ft | 492 kts | 114° |
| 2026-05-05 02:45 | 35.89292 | 26.80157 | 33062 ft | 492 kts | 114° |
| 2026-05-05 02:46 | 35.86332 | 26.87767 | 33059 ft | 492 kts | 114° |
| 2026-05-05 02:46 | 35.83361 | 26.95365 | 33055 ft | 492 kts | 114° |
| 2026-05-05 02:47 | 35.80374 | 27.02960 | 33054 ft | 492 kts | 114° |
| 2026-05-05 02:47 | 35.77408 | 27.10515 | 33046 ft | 492 kts | 114° |
| 2026-05-05 02:48 | 35.74423 | 27.18109 | 33053 ft | 493 kts | 114° |
| 2026-05-05 02:48 | 35.71428 | 27.25709 | 33036 ft | 493 kts | 114° |
| 2026-05-05 02:49 | 35.68429 | 27.33301 | 33040 ft | 494 kts | 114° |
| 2026-05-05 02:49 | 35.65416 | 27.40906 | 33023 ft | 495 kts | 114° |
| 2026-05-05 02:50 | 35.62389 | 27.48533 | 33042 ft | 496 kts | 114° |
| 2026-05-05 02:50 | 35.59376 | 27.56105 | 33036 ft | 497 kts | 114° |
| 2026-05-05 02:51 | 35.56332 | 27.63735 | 33023 ft | 497 kts | 114° |
| 2026-05-05 02:51 | 35.53283 | 27.71362 | 33028 ft | 497 kts | 114° |
| 2026-05-05 02:52 | 35.50226 | 27.78991 | 33025 ft | 498 kts | 114° |
| 2026-05-05 02:52 | 35.47163 | 27.86616 | 33024 ft | 498 kts | 114° |
| 2026-05-05 02:53 | 35.44096 | 27.94237 | 33029 ft | 498 kts | 114° |
| 2026-05-05 02:53 | 35.41019 | 28.01862 | 33029 ft | 499 kts | 114° |
| 2026-05-05 02:54 | 35.37953 | 28.09444 | 33023 ft | 500 kts | 114° |
| 2026-05-05 02:54 | 35.34859 | 28.17076 | 33019 ft | 500 kts | 114° |
| 2026-05-05 02:55 | 35.31757 | 28.24713 | 33017 ft | 501 kts | 114° |
| 2026-05-05 02:55 | 35.28648 | 28.32352 | 33013 ft | 501 kts | 114° |
| 2026-05-05 02:56 | 35.25894 | 28.40162 | 33014 ft | 498 kts | 106° |
| 2026-05-05 02:56 | 35.23672 | 28.48189 | 33017 ft | 498 kts | 105° |
| 2026-05-05 02:57 | 35.21467 | 28.56171 | 33007 ft | 498 kts | 105° |
| 2026-05-05 02:57 | 35.19208 | 28.64195 | 32997 ft | 498 kts | 106° |
| 2026-05-05 02:58 | 35.16931 | 28.72200 | 32997 ft | 499 kts | 106° |
| 2026-05-05 02:58 | 35.14643 | 28.80217 | 32995 ft | 499 kts | 106° |
| 2026-05-05 02:59 | 35.12355 | 28.88215 | 32991 ft | 499 kts | 106° |
| 2026-05-05 02:59 | 35.10062 | 28.96216 | 32989 ft | 499 kts | 105° |
| 2026-05-05 03:00 | 35.07774 | 29.04174 | 32992 ft | 500 kts | 106° |
| 2026-05-05 03:00 | 35.05464 | 29.12188 | 32984 ft | 500 kts | 106° |
| 2026-05-05 03:01 | 35.03148 | 29.20198 | 32985 ft | 501 kts | 106° |
| 2026-05-05 03:01 | 35.00828 | 29.28205 | 32985 ft | 500 kts | 106° |
| 2026-05-05 03:02 | 34.98176 | 29.36081 | 32972 ft | 504 kts | 115° |
| 2026-05-05 03:02 | 34.94678 | 29.43523 | 32982 ft | 506 kts | 117° |
| 2026-05-05 03:03 | 34.91125 | 29.50924 | 32972 ft | 506 kts | 117° |
| 2026-05-05 03:03 | 34.87597 | 29.58349 | 32972 ft | 506 kts | 117° |
| 2026-05-05 03:04 | 34.84103 | 29.65752 | 32969 ft | 506 kts | 117° |
| 2026-05-05 03:04 | 34.80587 | 29.73199 | 32972 ft | 507 kts | 117° |
| 2026-05-05 03:05 | 34.77087 | 29.80593 | 32963 ft | 507 kts | 117° |
| 2026-05-05 03:05 | 34.73558 | 29.88026 | 32968 ft | 507 kts | 118° |
| 2026-05-05 03:06 | 34.70021 | 29.95459 | 32965 ft | 508 kts | 118° |
| 2026-05-05 03:06 | 34.66477 | 30.02893 | 32964 ft | 508 kts | 118° |
| 2026-05-05 03:07 | 34.62928 | 30.10321 | 32964 ft | 508 kts | 118° |
| 2026-05-05 03:07 | 34.59377 | 30.17737 | 32966 ft | 508 kts | 118° |
| 2026-05-05 03:08 | 34.55843 | 30.25102 | 32963 ft | 508 kts | 118° |
| 2026-05-05 03:08 | 34.52278 | 30.32516 | 32968 ft | 509 kts | 118° |
| 2026-05-05 03:09 | 34.48701 | 30.39941 | 32964 ft | 509 kts | 118° |
| 2026-05-05 03:09 | 34.45126 | 30.47344 | 32964 ft | 509 kts | 119° |
| 2026-05-05 03:10 | 34.41546 | 30.54742 | 32956 ft | 509 kts | 119° |
| 2026-05-05 03:10 | 34.37958 | 30.62141 | 32962 ft | 509 kts | 119° |
| 2026-05-05 03:11 | 34.34391 | 30.69483 | 32963 ft | 509 kts | 119° |
| 2026-05-05 03:11 | 34.30793 | 30.76874 | 32959 ft | 510 kts | 120° |
| 2026-05-05 03:12 | 34.27188 | 30.84265 | 32961 ft | 510 kts | 120° |
| 2026-05-05 03:12 | 34.23524 | 30.91635 | 32944 ft | 509 kts | 126° |
| 2026-05-05 03:12 | 34.21123 | 30.94768 | 32956 ft | 510 kts | 143° |
| 2026-05-05 03:13 | 34.18115 | 30.97003 | 32963 ft | 507 kts | 160° |
| 2026-05-05 03:13 | 34.14758 | 30.98183 | 32967 ft | 499 kts | 176° |
| 2026-05-05 03:13 | 34.11325 | 30.98281 | 32966 ft | 489 kts | 192° |
| 2026-05-05 03:13 | 34.08085 | 30.97384 | 32964 ft | 478 kts | 206° |
| 2026-05-05 03:14 | 34.05155 | 30.95599 | 32964 ft | 467 kts | 220° |
| 2026-05-05 03:14 | 34.02716 | 30.93091 | 32963 ft | 457 kts | 233° |
| 2026-05-05 03:14 | 34.00871 | 30.90035 | 32966 ft | 447 kts | 246° |
| 2026-05-05 03:14 | 33.99680 | 30.86620 | 32965 ft | 439 kts | 259° |
| 2026-05-05 03:15 | 33.99168 | 30.83032 | 32966 ft | 432 kts | 271° |
| 2026-05-05 03:15 | 33.99732 | 30.75898 | 32968 ft | 426 kts | 288° |
| 2026-05-05 03:15 | 34.00918 | 30.72658 | 32969 ft | 421 kts | 301° |
| 2026-05-05 03:16 | 34.02440 | 30.69629 | 32973 ft | 424 kts | 302° |
| 2026-05-05 03:16 | 34.05469 | 30.63520 | 32968 ft | 424 kts | 301° |
| 2026-05-05 03:17 | 34.08425 | 30.57360 | 32970 ft | 424 kts | 301° |
| 2026-05-05 03:17 | 34.11345 | 30.51223 | 32972 ft | 423 kts | 302° |
| 2026-05-05 03:17 | 34.13127 | 30.48427 | 32965 ft | 423 kts | 317° |
| 2026-05-05 03:18 | 34.15516 | 30.46338 | 32984 ft | 427 kts | 330° |
| 2026-05-05 03:18 | 34.21183 | 30.44089 | 32971 ft | 434 kts | 348° |
| 2026-05-05 03:19 | 34.30153 | 30.45682 | 32966 ft | 455 kts | 25° |
| 2026-05-05 03:19 | 34.32700 | 30.48015 | 32977 ft | 467 kts | 41° |
| 2026-05-05 03:19 | 34.34688 | 30.51179 | 32980 ft | 478 kts | 56° |
| 2026-05-05 03:20 | 34.35991 | 30.54920 | 32976 ft | 489 kts | 70° |
| 2026-05-05 03:20 | 34.36556 | 30.59006 | 32975 ft | 497 kts | 84° |
| 2026-05-05 03:20 | 34.36395 | 30.63199 | 32975 ft | 502 kts | 96° |
| 2026-05-05 03:20 | 34.35477 | 30.67296 | 32951 ft | 508 kts | 113° |
| 2026-05-05 03:21 | 34.31881 | 30.74665 | 32962 ft | 511 kts | 121° |
| 2026-05-05 03:21 | 34.28207 | 30.81983 | 32962 ft | 511 kts | 119° |
| 2026-05-05 03:22 | 34.24651 | 30.89427 | 32957 ft | 510 kts | 119° |
| 2026-05-05 03:22 | 34.22726 | 30.93007 | 32945 ft | 509 kts | 131° |
| 2026-05-05 03:22 | 34.20091 | 30.95856 | 32953 ft | 509 kts | 149° |
| 2026-05-05 03:23 | 34.18025 | 30.97168 | 32961 ft | 506 kts | 161° |
| 2026-05-05 03:23 | 34.14649 | 30.98223 | 32971 ft | 498 kts | 178° |
| 2026-05-05 03:23 | 34.11220 | 30.98219 | 32961 ft | 489 kts | 192° |
| 2026-05-05 03:23 | 34.07958 | 30.97278 | 32969 ft | 478 kts | 206° |
| 2026-05-05 03:24 | 34.05012 | 30.95511 | 32963 ft | 468 kts | 219° |
| 2026-05-05 03:24 | 34.02548 | 30.93034 | 32968 ft | 457 kts | 233° |
| 2026-05-05 03:24 | 34.00688 | 30.89979 | 32967 ft | 447 kts | 246° |
| 2026-05-05 03:24 | 33.99526 | 30.86556 | 32966 ft | 438 kts | 259° |
| 2026-05-05 03:25 | 33.99063 | 30.82952 | 32976 ft | 432 kts | 271° |
| 2026-05-05 03:25 | 33.99148 | 30.79351 | 32980 ft | 429 kts | 278° |
| 2026-05-05 03:25 | 34.00833 | 30.72570 | 32974 ft | 421 kts | 301° |
| 2026-05-05 03:26 | 34.03861 | 30.66533 | 32977 ft | 425 kts | 301° |
| 2026-05-05 03:26 | 34.06856 | 30.60388 | 32971 ft | 424 kts | 301° |
| 2026-05-05 03:27 | 34.09802 | 30.54207 | 32977 ft | 425 kts | 301° |
| 2026-05-05 03:27 | 34.13042 | 30.48340 | 32974 ft | 423 kts | 316° |
| 2026-05-05 03:28 | 34.15425 | 30.46251 | 32984 ft | 427 kts | 331° |
| 2026-05-05 03:28 | 34.18230 | 30.45028 | 32982 ft | 433 kts | 345° |
| 2026-05-05 03:28 | 34.21239 | 30.44644 | 32979 ft | 438 kts | 356° |
| 2026-05-05 03:28 | 34.24293 | 30.44991 | 32973 ft | 444 kts | 7° |
| 2026-05-05 03:29 | 34.27269 | 30.46090 | 32967 ft | 451 kts | 19° |
| 2026-05-05 03:29 | 34.30008 | 30.47997 | 32963 ft | 460 kts | 32° |
| 2026-05-05 03:29 | 34.32338 | 30.50703 | 32966 ft | 470 kts | 46° |
| 2026-05-05 03:29 | 34.34083 | 30.54092 | 32970 ft | 481 kts | 61° |
| 2026-05-05 03:30 | 34.35105 | 30.57981 | 32973 ft | 491 kts | 76° |
| 2026-05-05 03:30 | 34.35302 | 30.62091 | 32973 ft | 500 kts | 91° |
| 2026-05-05 03:30 | 34.34730 | 30.66253 | 32975 ft | 506 kts | 104° |
| 2026-05-05 03:30 | 34.33325 | 30.70163 | 32958 ft | 508 kts | 121° |
| 2026-05-05 03:31 | 34.29419 | 30.77341 | 32972 ft | 512 kts | 123° |
| 2026-05-05 03:31 | 34.25480 | 30.84521 | 32962 ft | 511 kts | 122° |
| 2026-05-05 03:32 | 34.21689 | 30.91787 | 32966 ft | 511 kts | 121° |
| 2026-05-05 03:32 | 34.17913 | 30.99076 | 32963 ft | 512 kts | 122° |
| 2026-05-05 03:33 | 34.14135 | 31.06305 | 32960 ft | 512 kts | 122° |
| 2026-05-05 03:33 | 34.10309 | 31.13576 | 32970 ft | 516 kts | 122° |
| 2026-05-05 03:34 | 34.06429 | 31.20924 | 32973 ft | 522 kts | 122° |
| 2026-05-05 03:34 | 34.02517 | 31.28320 | 32966 ft | 522 kts | 122° |
| 2026-05-05 03:35 | 33.98609 | 31.35696 | 32959 ft | 521 kts | 122° |
| 2026-05-05 03:35 | 33.94702 | 31.43059 | 32963 ft | 521 kts | 123° |
| 2026-05-05 03:36 | 33.90785 | 31.50423 | 32961 ft | 522 kts | 123° |
| 2026-05-05 03:36 | 33.86893 | 31.57724 | 32956 ft | 521 kts | 123° |
| 2026-05-05 03:37 | 33.82971 | 31.65068 | 32957 ft | 521 kts | 123° |
| 2026-05-05 03:37 | 33.79042 | 31.72409 | 32961 ft | 521 kts | 123° |
| 2026-05-05 03:38 | 33.75115 | 31.79733 | 32959 ft | 521 kts | 123° |
| 2026-05-05 03:38 | 33.71181 | 31.87054 | 32958 ft | 520 kts | 124° |
| 2026-05-05 03:39 | 33.67283 | 31.94294 | 32957 ft | 520 kts | 124° |
| 2026-05-05 03:39 | 33.63352 | 32.01581 | 32960 ft | 519 kts | 124° |
| 2026-05-05 03:40 | 33.59415 | 32.08865 | 32962 ft | 520 kts | 124° |
| 2026-05-05 03:40 | 33.55477 | 32.16135 | 32960 ft | 519 kts | 124° |
| 2026-05-05 03:41 | 33.51558 | 32.23357 | 32958 ft | 520 kts | 125° |
| 2026-05-05 03:41 | 33.47601 | 32.30634 | 32957 ft | 521 kts | 125° |
| 2026-05-05 03:42 | 33.43642 | 32.37900 | 32960 ft | 521 kts | 125° |
| 2026-05-05 03:42 | 33.39676 | 32.45164 | 32963 ft | 521 kts | 125° |
| 2026-05-05 03:43 | 33.35735 | 32.52368 | 32959 ft | 521 kts | 126° |
| 2026-05-05 03:43 | 33.31761 | 32.59619 | 32961 ft | 521 kts | 126° |
| 2026-05-05 03:44 | 33.27781 | 32.66866 | 32966 ft | 522 kts | 126° |
| 2026-05-05 03:44 | 33.23784 | 32.74129 | 32964 ft | 523 kts | 126° |
| 2026-05-05 03:45 | 33.19779 | 32.81392 | 32964 ft | 524 kts | 126° |
| 2026-05-05 03:45 | 33.15776 | 32.88641 | 32867 ft | 518 kts | 126° |
| 2026-05-05 03:46 | 33.13835 | 32.92154 | 32536 ft | 510 kts | 126° |
| 2026-05-05 03:46 | 33.11880 | 32.95686 | 31849 ft | 509 kts | 126° |
| 2026-05-05 03:46 | 33.09927 | 32.99208 | 31158 ft | 508 kts | 126° |
| 2026-05-05 03:46 | 33.07979 | 33.02717 | 30519 ft | 507 kts | 126° |
| 2026-05-05 03:47 | 33.06035 | 33.06217 | 29930 ft | 503 kts | 126° |
| 2026-05-05 03:47 | 33.04112 | 33.09676 | 29344 ft | 498 kts | 126° |
| 2026-05-05 03:47 | 33.02203 | 33.13110 | 28751 ft | 494 kts | 126° |
| 2026-05-05 03:47 | 33.00311 | 33.16507 | 28165 ft | 490 kts | 126° |
| 2026-05-05 03:48 | 32.98432 | 33.19879 | 27558 ft | 487 kts | 126° |
| 2026-05-05 03:48 | 32.96563 | 33.23229 | 26981 ft | 484 kts | 126° |
| 2026-05-05 03:48 | 32.94708 | 33.26551 | 26431 ft | 480 kts | 126° |
| 2026-05-05 03:48 | 32.92860 | 33.29856 | 25902 ft | 477 kts | 126° |
| 2026-05-05 03:49 | 32.91054 | 33.33085 | 25398 ft | 473 kts | 126° |
| 2026-05-05 03:49 | 32.89235 | 33.36334 | 24899 ft | 470 kts | 126° |
| 2026-05-05 03:49 | 32.87429 | 33.39557 | 24413 ft | 466 kts | 126° |
| 2026-05-05 03:49 | 32.85629 | 33.42766 | 23920 ft | 463 kts | 126° |
| 2026-05-05 03:50 | 32.83846 | 33.45941 | 23438 ft | 460 kts | 126° |
| 2026-05-05 03:50 | 32.82076 | 33.49093 | 22893 ft | 456 kts | 126° |
| 2026-05-05 03:50 | 32.80318 | 33.52220 | 22361 ft | 453 kts | 126° |
| 2026-05-05 03:50 | 32.78576 | 33.55316 | 21833 ft | 449 kts | 126° |
| 2026-05-05 03:51 | 32.76866 | 33.58351 | 21311 ft | 446 kts | 126° |
| 2026-05-05 03:51 | 32.75143 | 33.61409 | 20819 ft | 443 kts | 126° |
| 2026-05-05 03:51 | 32.73433 | 33.64439 | 20318 ft | 440 kts | 126° |
| 2026-05-05 03:51 | 32.71735 | 33.67446 | 19821 ft | 437 kts | 126° |
| 2026-05-05 03:52 | 32.70047 | 33.70433 | 19344 ft | 434 kts | 126° |
| 2026-05-05 03:52 | 32.68373 | 33.73395 | 18868 ft | 431 kts | 126° |
| 2026-05-05 03:52 | 32.66708 | 33.76336 | 18404 ft | 428 kts | 125° |
| 2026-05-05 03:52 | 32.65054 | 33.79256 | 17891 ft | 425 kts | 125° |
| 2026-05-05 03:53 | 32.63426 | 33.82129 | 17368 ft | 422 kts | 125° |
| 2026-05-05 03:53 | 32.61790 | 33.85015 | 16852 ft | 420 kts | 125° |
| 2026-05-05 03:53 | 32.60166 | 33.87878 | 16331 ft | 417 kts | 125° |
| 2026-05-05 03:53 | 32.58550 | 33.90724 | 15842 ft | 414 kts | 126° |
| 2026-05-05 03:54 | 32.56942 | 33.93550 | 15334 ft | 411 kts | 126° |
| 2026-05-05 03:54 | 32.55278 | 33.96278 | 14835 ft | 405 kts | 132° |
| 2026-05-05 03:54 | 32.53379 | 33.98737 | 14368 ft | 401 kts | 137° |
| 2026-05-05 03:54 | 32.51423 | 34.01053 | 13900 ft | 398 kts | 138° |
| 2026-05-05 03:55 | 32.49457 | 34.03372 | 13384 ft | 396 kts | 137° |
| 2026-05-05 03:55 | 32.47560 | 34.05669 | 12864 ft | 394 kts | 136° |
| 2026-05-05 03:55 | 32.45674 | 34.08003 | 12352 ft | 391 kts | 136° |
| 2026-05-05 03:55 | 32.43804 | 34.10335 | 11825 ft | 389 kts | 135° |
| 2026-05-05 03:56 | 32.42011 | 34.12712 | 11322 ft | 386 kts | 129° |
| 2026-05-05 03:56 | 32.40468 | 34.15309 | 10845 ft | 385 kts | 124° |
| 2026-05-05 03:56 | 32.39034 | 34.17967 | 10359 ft | 382 kts | 124° |
| 2026-05-05 03:56 | 32.37608 | 34.20613 | 9884 ft | 380 kts | 124° |
| 2026-05-05 03:57 | 32.36164 | 34.23213 | 9352 ft | 377 kts | 125° |
| 2026-05-05 03:57 | 32.34700 | 34.25780 | 8831 ft | 375 kts | 126° |
| 2026-05-05 03:57 | 32.33235 | 34.28320 | 8322 ft | 372 kts | 126° |
| 2026-05-05 03:57 | 32.31780 | 34.30837 | 7818 ft | 370 kts | 126° |
| 2026-05-05 03:58 | 32.30332 | 34.33343 | 7375 ft | 366 kts | 127° |
| 2026-05-05 03:58 | 32.28908 | 34.35809 | 7026 ft | 359 kts | 127° |
| 2026-05-05 03:58 | 32.27517 | 34.38220 | 6754 ft | 351 kts | 127° |
| 2026-05-05 03:58 | 32.26155 | 34.40581 | 6463 ft | 344 kts | 127° |
| 2026-05-05 03:59 | 32.24914 | 34.42730 | 6183 ft | 337 kts | 127° |
| 2026-05-05 03:59 | 32.23603 | 34.45001 | 5907 ft | 331 kts | 127° |
| 2026-05-05 03:59 | 32.22315 | 34.47230 | 5609 ft | 325 kts | 127° |
| 2026-05-05 03:59 | 32.21047 | 34.49421 | 5319 ft | 320 kts | 127° |
| 2026-05-05 04:00 | 32.19817 | 34.51548 | 5081 ft | 314 kts | 127° |
| 2026-05-05 04:00 | 32.18611 | 34.53637 | 5007 ft | 302 kts | 127° |
| 2026-05-05 04:00 | 32.17477 | 34.55673 | 4989 ft | 289 kts | 125° |
| 2026-05-05 04:00 | 32.16444 | 34.57636 | 4980 ft | 275 kts | 124° |
| 2026-05-05 04:01 | 32.15474 | 34.59517 | 4995 ft | 260 kts | 124° |
| 2026-05-05 04:01 | 32.14568 | 34.61279 | 5002 ft | 244 kts | 124° |
| 2026-05-05 04:01 | 32.13687 | 34.62983 | 4715 ft | 241 kts | 124° |
| 2026-05-05 04:01 | 32.12822 | 34.64656 | 4380 ft | 236 kts | 124° |
| 2026-05-05 04:02 | 32.11985 | 34.66276 | 4056 ft | 225 kts | 124° |
| 2026-05-05 04:02 | 32.11206 | 34.67785 | 3764 ft | 210 kts | 124° |
| 2026-05-05 04:02 | 32.10477 | 34.69196 | 3504 ft | 194 kts | 125° |
| 2026-05-05 04:02 | 32.09808 | 34.70491 | 3259 ft | 175 kts | 125° |
| 2026-05-05 04:03 | 32.09180 | 34.71702 | 3018 ft | 172 kts | 124° |
| 2026-05-05 04:03 | 32.08559 | 34.72900 | 2796 ft | 170 kts | 125° |
| 2026-05-05 04:03 | 32.07945 | 34.74087 | 2564 ft | 170 kts | 125° |
| 2026-05-05 04:03 | 32.07325 | 34.75282 | 2341 ft | 170 kts | 124° |
| 2026-05-05 04:04 | 32.06712 | 34.76467 | 2114 ft | 168 kts | 124° |
| 2026-05-05 04:04 | 32.06112 | 34.77628 | 1877 ft | 166 kts | 124° |
| 2026-05-05 04:04 | 32.05513 | 34.78783 | 1648 ft | 165 kts | 125° |
| 2026-05-05 04:04 | 32.04916 | 34.79934 | 1405 ft | 164 kts | 126° |
| 2026-05-05 04:05 | 32.04328 | 34.81059 | 1138 ft | 158 kts | 127° |
| 2026-05-05 04:05 | 32.03755 | 34.82168 | 832 ft | 159 kts | 125° |
| 2026-05-05 04:05 | 32.03189 | 34.83268 | 626 ft | 153 kts | 125° |
| 2026-05-05 04:05 | 32.02620 | 34.84331 | 411 ft | 154 kts | 125° |
| 2026-05-05 04:06 | 32.02080 | 34.85401 | 322 ft | 148 kts | 126° |
| 2026-05-05 04:06 | 32.01538 | 34.86438 | 162 ft | 147 kts | 124° |
| 2026-05-05 04:06 | 32.01030 | 34.87425 | 122 ft | 125 kts | 121° |
| 2026-05-05 04:06 | 32.00682 | 34.88096 | 122 ft | 57 kts | 120° |
| 2026-05-05 04:07 | 32.00491 | 34.88477 | 124 ft | 51 kts | 121° |
| 2026-05-05 04:07 | 32.00357 | 34.88618 | 123 ft | 22 kts | 156° |
| 2026-05-05 04:07 | 32.00252 | 34.88679 | 121 ft | 14 kts | 153° |
| 2026-05-05 04:07 | 32.00159 | 34.88715 | 122 ft | 14 kts | 178° |
| 2026-05-05 04:08 | 32.00108 | 34.88628 | 121 ft | 22 kts | 287° |
| 2026-05-05 04:08 | 32.00208 | 34.88422 | 121 ft | 30 kts | 301° |
| 2026-05-05 04:08 | 32.00316 | 34.88210 | 120 ft | 30 kts | 301° |
| 2026-05-05 04:08 | 32.00415 | 34.88012 | 124 ft | 23 kts | 301° |
| 2026-05-05 04:09 | 32.00488 | 34.87883 | 120 ft | 15 kts | 303° |
| 2026-05-05 04:09 | 32.00543 | 34.87781 | 121 ft | 15 kts | 302° |
| 2026-05-05 04:09 | 32.00555 | 34.87675 | 124 ft | 14 kts | 243° |
| 2026-05-05 04:09 | 32.00507 | 34.87592 | 122 ft | 11 kts | 217° |
| 2026-05-05 04:10 | 32.00456 | 34.87579 | 124 ft | 2 kts | 198° |
| 2026-05-05 04:10 | 32.00439 | 34.87566 | 122 ft | 0 kts | 218° |
| 2026-05-05 04:10 | 32.00436 | 34.87563 | 124 ft | 1 kts | 219° |
| 2026-05-05 04:10 | 32.00429 | 34.87556 | 120 ft | 0 kts | 223° |